<?xml version="1.0" encoding="UTF-8" standalone="no" ?>
<gpx xmlns="http://www.topografix.com/GPX/1/1" xmlns:xsi="http://www.w3.org/2001/XMLSchema-instance" xsi:schemaLocation="http://www.topografix.com/GPX/1/1 http://www.topografix.com/GPX/1/1/gpx.xsd" version="1.1" creator="VisuGPX - https://www.visugpx.com">
  <metadata>
    <name>Chamouille-Vauclair-2022-04-04 13:43</name>
    <desc><![CDATA[File with points/tracks from Locus Map/4.8.1]]></desc>
  </metadata>
  <trk>
    <name><![CDATA[2022-04-04 13:43]]></name>
    <extensions>
      <line xmlns="http://www.topografix.com/GPX/gpx_style/0/2">
        <color>0000FF</color>
        <opacity>0.59</opacity>
        <width>6.0</width>
      </line>
    </extensions>
    <trkseg>
      <trkpt lat="49.4637" lon="3.69701">
        <ele>87.21</ele>
        <time>2022-04-04T11:43:33.000Z</time>
      </trkpt>
      <trkpt lat="49.46374" lon="3.69703">
        <ele>87.4</ele>
        <time>2022-04-04T11:43:43.000Z</time>
      </trkpt>
      <trkpt lat="49.46375" lon="3.69701">
        <ele>87.2</ele>
        <time>2022-04-04T11:43:57.000Z</time>
      </trkpt>
      <trkpt lat="49.46374" lon="3.697">
        <ele>86.9</ele>
        <time>2022-04-04T11:44:15.000Z</time>
      </trkpt>
      <trkpt lat="49.46373" lon="3.697">
        <ele>87.2</ele>
        <time>2022-04-04T11:44:25.000Z</time>
      </trkpt>
      <trkpt lat="49.46373" lon="3.69698">
        <ele>87.2</ele>
        <time>2022-04-04T11:44:35.000Z</time>
      </trkpt>
      <trkpt lat="49.46374" lon="3.69698">
        <ele>86.9</ele>
        <time>2022-04-04T11:44:58.000Z</time>
      </trkpt>
      <trkpt lat="49.46373" lon="3.69699">
        <ele>87.2</ele>
        <time>2022-04-04T11:45:18.000Z</time>
      </trkpt>
      <trkpt lat="49.46372" lon="3.69701">
        <ele>85.88</ele>
        <time>2022-04-04T11:45:28.000Z</time>
      </trkpt>
      <trkpt lat="49.46372" lon="3.69703">
        <ele>85.8</ele>
        <time>2022-04-04T11:46:00.000Z</time>
      </trkpt>
      <trkpt lat="49.46373" lon="3.69701">
        <ele>85.8</ele>
        <time>2022-04-04T11:51:47.000Z</time>
      </trkpt>
      <trkpt lat="49.46372" lon="3.69702">
        <ele>87.2</ele>
        <time>2022-04-04T11:51:57.000Z</time>
      </trkpt>
      <trkpt lat="49.46371" lon="3.69702">
        <ele>87.19</ele>
        <time>2022-04-04T11:52:13.000Z</time>
      </trkpt>
      <trkpt lat="49.4637" lon="3.69701">
        <ele>87.2</ele>
        <time>2022-04-04T11:52:23.000Z</time>
      </trkpt>
      <trkpt lat="49.4637" lon="3.69699">
        <ele>85.8</ele>
        <time>2022-04-04T11:52:33.000Z</time>
      </trkpt>
      <trkpt lat="49.46373" lon="3.69694">
        <ele>87.2</ele>
        <time>2022-04-04T11:52:43.000Z</time>
      </trkpt>
      <trkpt lat="49.46373" lon="3.69693">
        <ele>86.15</ele>
        <time>2022-04-04T11:52:52.740Z</time>
      </trkpt>
      <trkpt lat="49.46373" lon="3.69692">
        <ele>87.2</ele>
        <time>2022-04-04T11:53:13.000Z</time>
      </trkpt>
      <trkpt lat="49.46372" lon="3.69691">
        <ele>87.2</ele>
        <time>2022-04-04T11:53:27.000Z</time>
      </trkpt>
      <trkpt lat="49.46372" lon="3.69689">
        <ele>88.23</ele>
        <time>2022-04-04T11:53:37.000Z</time>
      </trkpt>
      <trkpt lat="49.46371" lon="3.69688">
        <ele>87.21</ele>
        <time>2022-04-04T11:53:47.000Z</time>
      </trkpt>
      <trkpt lat="49.46369" lon="3.6969">
        <ele>87.2</ele>
        <time>2022-04-04T11:53:57.000Z</time>
      </trkpt>
      <trkpt lat="49.46369" lon="3.69688">
        <ele>88.14</ele>
        <time>2022-04-04T11:54:20.000Z</time>
      </trkpt>
      <trkpt lat="49.46369" lon="3.6969">
        <ele>85.84</ele>
        <time>2022-04-04T11:54:30.000Z</time>
      </trkpt>
      <trkpt lat="49.46368" lon="3.69691">
        <ele>85.8</ele>
        <time>2022-04-04T11:54:40.000Z</time>
      </trkpt>
      <trkpt lat="49.46367" lon="3.69691">
        <ele>87.2</ele>
        <time>2022-04-04T11:55:02.000Z</time>
      </trkpt>
      <trkpt lat="49.46367" lon="3.69693">
        <ele>85.8</ele>
        <time>2022-04-04T11:55:30.000Z</time>
      </trkpt>
      <trkpt lat="49.46369" lon="3.69695">
        <ele>85.8</ele>
        <time>2022-04-04T11:55:40.000Z</time>
      </trkpt>
      <trkpt lat="49.46366" lon="3.69694">
        <ele>86.9</ele>
        <time>2022-04-04T11:55:50.000Z</time>
      </trkpt>
      <trkpt lat="49.46366" lon="3.69696">
        <ele>85.8</ele>
        <time>2022-04-04T11:56:22.000Z</time>
      </trkpt>
      <trkpt lat="49.46366" lon="3.69698">
        <ele>87.2</ele>
        <time>2022-04-04T11:56:35.000Z</time>
      </trkpt>
      <trkpt lat="49.46365" lon="3.697">
        <ele>86.15</ele>
        <time>2022-04-04T11:56:44.646Z</time>
      </trkpt>
      <trkpt lat="49.46365" lon="3.69701">
        <ele>87.11</ele>
        <time>2022-04-04T11:56:55.000Z</time>
      </trkpt>
      <trkpt lat="49.46363" lon="3.69699">
        <ele>88.29</ele>
        <time>2022-04-04T11:57:05.000Z</time>
      </trkpt>
      <trkpt lat="49.46363" lon="3.69697">
        <ele>85.8</ele>
        <time>2022-04-04T11:57:17.000Z</time>
      </trkpt>
      <trkpt lat="49.46364" lon="3.69696">
        <ele>85.8</ele>
        <time>2022-04-04T11:57:27.000Z</time>
      </trkpt>
      <trkpt lat="49.46365" lon="3.69706">
        <ele>88.3</ele>
        <time>2022-04-04T11:57:36.898Z</time>
      </trkpt>
      <trkpt lat="49.46366" lon="3.69705">
        <ele>85.84</ele>
        <time>2022-04-04T11:57:45.936Z</time>
      </trkpt>
      <trkpt lat="49.46367" lon="3.69701">
        <ele>85.8</ele>
        <time>2022-04-04T11:57:55.000Z</time>
      </trkpt>
      <trkpt lat="49.46366" lon="3.69702">
        <ele>87.02</ele>
        <time>2022-04-04T11:58:42.000Z</time>
      </trkpt>
      <trkpt lat="49.46368" lon="3.69712">
        <ele>86.9</ele>
        <time>2022-04-04T11:58:51.099Z</time>
      </trkpt>
      <trkpt lat="49.46365" lon="3.69712">
        <ele>86.9</ele>
        <time>2022-04-04T11:59:01.000Z</time>
      </trkpt>
      <trkpt lat="49.46364" lon="3.69712">
        <ele>99.7</ele>
        <time>2022-04-04T11:59:11.000Z</time>
      </trkpt>
      <trkpt lat="49.46363" lon="3.69711">
        <ele>87.21</ele>
        <time>2022-04-04T11:59:34.000Z</time>
      </trkpt>
      <trkpt lat="49.46364" lon="3.6971">
        <ele>90.47</ele>
        <time>2022-04-04T11:59:56.000Z</time>
      </trkpt>
      <trkpt lat="49.46366" lon="3.69709">
        <ele>87.2</ele>
        <time>2022-04-04T12:00:06.000Z</time>
      </trkpt>
      <trkpt lat="49.46367" lon="3.69707">
        <ele>88.3</ele>
        <time>2022-04-04T12:00:16.000Z</time>
      </trkpt>
      <trkpt lat="49.46366" lon="3.69693">
        <ele>88.3</ele>
        <time>2022-04-04T12:00:26.000Z</time>
      </trkpt>
      <trkpt lat="49.46367" lon="3.69676">
        <ele>87.2</ele>
        <time>2022-04-04T12:00:35.773Z</time>
      </trkpt>
      <trkpt lat="49.46369" lon="3.69661">
        <ele>87.2</ele>
        <time>2022-04-04T12:00:44.834Z</time>
      </trkpt>
      <trkpt lat="49.46369" lon="3.69667">
        <ele>87.2</ele>
        <time>2022-04-04T12:00:54.000Z</time>
      </trkpt>
      <trkpt lat="49.46368" lon="3.69656">
        <ele>87.67</ele>
        <time>2022-04-04T12:01:04.000Z</time>
      </trkpt>
      <trkpt lat="49.46369" lon="3.69653">
        <ele>87.2</ele>
        <time>2022-04-04T12:01:14.000Z</time>
      </trkpt>
      <trkpt lat="49.4637" lon="3.69652">
        <ele>87.4</ele>
        <time>2022-04-04T12:02:08.000Z</time>
      </trkpt>
      <trkpt lat="49.4637" lon="3.69651">
        <ele>87.2</ele>
        <time>2022-04-04T12:02:18.000Z</time>
      </trkpt>
      <trkpt lat="49.4637" lon="3.69653">
        <ele>87.2</ele>
        <time>2022-04-04T12:02:28.000Z</time>
      </trkpt>
      <trkpt lat="49.46368" lon="3.69654">
        <ele>87.35</ele>
        <time>2022-04-04T12:02:37.539Z</time>
      </trkpt>
      <trkpt lat="49.46365" lon="3.6965">
        <ele>87.2</ele>
        <time>2022-04-04T12:02:47.000Z</time>
      </trkpt>
      <trkpt lat="49.46363" lon="3.69645">
        <ele>87.4</ele>
        <time>2022-04-04T12:02:56.798Z</time>
      </trkpt>
      <trkpt lat="49.46356" lon="3.69635">
        <ele>87.2</ele>
        <time>2022-04-04T12:03:06.373Z</time>
      </trkpt>
      <trkpt lat="49.46345" lon="3.69649">
        <ele>87.2</ele>
        <time>2022-04-04T12:03:15.774Z</time>
      </trkpt>
      <trkpt lat="49.46334" lon="3.69651">
        <ele>87.4</ele>
        <time>2022-04-04T12:03:25.137Z</time>
      </trkpt>
      <trkpt lat="49.4632" lon="3.69653">
        <ele>86.9</ele>
        <time>2022-04-04T12:03:34.523Z</time>
      </trkpt>
      <trkpt lat="49.46307" lon="3.69655">
        <ele>84.1</ele>
        <time>2022-04-04T12:03:43.997Z</time>
      </trkpt>
      <trkpt lat="49.46295" lon="3.69654">
        <ele>84</ele>
        <time>2022-04-04T12:03:53.861Z</time>
      </trkpt>
      <trkpt lat="49.46281" lon="3.69656">
        <ele>84.1</ele>
        <time>2022-04-04T12:04:03.736Z</time>
      </trkpt>
      <trkpt lat="49.4627" lon="3.69658">
        <ele>84</ele>
        <time>2022-04-04T12:04:13.023Z</time>
      </trkpt>
      <trkpt lat="49.46261" lon="3.69665">
        <ele>84.1</ele>
        <time>2022-04-04T12:04:22.160Z</time>
      </trkpt>
      <trkpt lat="49.46253" lon="3.69663">
        <ele>84.29</ele>
        <time>2022-04-04T12:04:32.077Z</time>
      </trkpt>
      <trkpt lat="49.46245" lon="3.69663">
        <ele>84</ele>
        <time>2022-04-04T12:04:41.839Z</time>
      </trkpt>
      <trkpt lat="49.46238" lon="3.69664">
        <ele>84.3</ele>
        <time>2022-04-04T12:04:51.081Z</time>
      </trkpt>
      <trkpt lat="49.4623" lon="3.69662">
        <ele>84.3</ele>
        <time>2022-04-04T12:05:00.473Z</time>
      </trkpt>
      <trkpt lat="49.4622" lon="3.69659">
        <ele>84.3</ele>
        <time>2022-04-04T12:05:10.023Z</time>
      </trkpt>
      <trkpt lat="49.4621" lon="3.6966">
        <ele>84.3</ele>
        <time>2022-04-04T12:05:19.395Z</time>
      </trkpt>
      <trkpt lat="49.46199" lon="3.69664">
        <ele>84.3</ele>
        <time>2022-04-04T12:05:28.905Z</time>
      </trkpt>
      <trkpt lat="49.46189" lon="3.69666">
        <ele>84.3</ele>
        <time>2022-04-04T12:05:38.000Z</time>
      </trkpt>
      <trkpt lat="49.46176" lon="3.69665">
        <ele>83.2</ele>
        <time>2022-04-04T12:05:47.517Z</time>
      </trkpt>
      <trkpt lat="49.46166" lon="3.69667">
        <ele>85.64</ele>
        <time>2022-04-04T12:05:57.042Z</time>
      </trkpt>
      <trkpt lat="49.46155" lon="3.69669">
        <ele>83.81</ele>
        <time>2022-04-04T12:06:06.634Z</time>
      </trkpt>
      <trkpt lat="49.46145" lon="3.69671">
        <ele>84</ele>
        <time>2022-04-04T12:06:15.737Z</time>
      </trkpt>
      <trkpt lat="49.46133" lon="3.69675">
        <ele>84</ele>
        <time>2022-04-04T12:06:24.833Z</time>
      </trkpt>
      <trkpt lat="49.46121" lon="3.69676">
        <ele>83.3</ele>
        <time>2022-04-04T12:06:34.000Z</time>
      </trkpt>
      <trkpt lat="49.4611" lon="3.69677">
        <ele>84.2</ele>
        <time>2022-04-04T12:06:43.364Z</time>
      </trkpt>
      <trkpt lat="49.46099" lon="3.69679">
        <ele>84.2</ele>
        <time>2022-04-04T12:06:52.698Z</time>
      </trkpt>
      <trkpt lat="49.46087" lon="3.69686">
        <ele>83.3</ele>
        <time>2022-04-04T12:07:01.856Z</time>
      </trkpt>
      <trkpt lat="49.46076" lon="3.69699">
        <ele>84.2</ele>
        <time>2022-04-04T12:07:11.001Z</time>
      </trkpt>
      <trkpt lat="49.46067" lon="3.69718">
        <ele>84.2</ele>
        <time>2022-04-04T12:07:20.313Z</time>
      </trkpt>
      <trkpt lat="49.46061" lon="3.69736">
        <ele>84.2</ele>
        <time>2022-04-04T12:07:29.738Z</time>
      </trkpt>
      <trkpt lat="49.46056" lon="3.69757">
        <ele>83.2</ele>
        <time>2022-04-04T12:07:39.000Z</time>
      </trkpt>
      <trkpt lat="49.46054" lon="3.69776">
        <ele>83.2</ele>
        <time>2022-04-04T12:07:48.535Z</time>
      </trkpt>
      <trkpt lat="49.46051" lon="3.69792">
        <ele>84.19</ele>
        <time>2022-04-04T12:07:57.918Z</time>
      </trkpt>
      <trkpt lat="49.46049" lon="3.69805">
        <ele>84.2</ele>
        <time>2022-04-04T12:08:07.515Z</time>
      </trkpt>
      <trkpt lat="49.46045" lon="3.6982">
        <ele>84.2</ele>
        <time>2022-04-04T12:08:16.644Z</time>
      </trkpt>
      <trkpt lat="49.46041" lon="3.69838">
        <ele>84.2</ele>
        <time>2022-04-04T12:08:26.000Z</time>
      </trkpt>
      <trkpt lat="49.46036" lon="3.69855">
        <ele>84.2</ele>
        <time>2022-04-04T12:08:35.738Z</time>
      </trkpt>
      <trkpt lat="49.46029" lon="3.69869">
        <ele>84.2</ele>
        <time>2022-04-04T12:08:44.895Z</time>
      </trkpt>
      <trkpt lat="49.46021" lon="3.6988">
        <ele>84.2</ele>
        <time>2022-04-04T12:08:54.040Z</time>
      </trkpt>
      <trkpt lat="49.46013" lon="3.69888">
        <ele>84.2</ele>
        <time>2022-04-04T12:09:03.578Z</time>
      </trkpt>
      <trkpt lat="49.46005" lon="3.69893">
        <ele>84.2</ele>
        <time>2022-04-04T12:09:13.077Z</time>
      </trkpt>
      <trkpt lat="49.45995" lon="3.69899">
        <ele>84.2</ele>
        <time>2022-04-04T12:09:22.182Z</time>
      </trkpt>
      <trkpt lat="49.45985" lon="3.6991">
        <ele>84.2</ele>
        <time>2022-04-04T12:09:31.665Z</time>
      </trkpt>
      <trkpt lat="49.45976" lon="3.69921">
        <ele>84.2</ele>
        <time>2022-04-04T12:09:41.023Z</time>
      </trkpt>
      <trkpt lat="49.45967" lon="3.69931">
        <ele>84.2</ele>
        <time>2022-04-04T12:09:50.597Z</time>
      </trkpt>
      <trkpt lat="49.4596" lon="3.6994">
        <ele>103.03</ele>
        <time>2022-04-04T12:09:59.600Z</time>
      </trkpt>
      <trkpt lat="49.45951" lon="3.69948">
        <ele>102.81</ele>
        <time>2022-04-04T12:10:08.658Z</time>
      </trkpt>
      <trkpt lat="49.45942" lon="3.69961">
        <ele>102.34</ele>
        <time>2022-04-04T12:10:18.000Z</time>
      </trkpt>
      <trkpt lat="49.45934" lon="3.69975">
        <ele>102.01</ele>
        <time>2022-04-04T12:10:27.342Z</time>
      </trkpt>
      <trkpt lat="49.45926" lon="3.69991">
        <ele>102.3</ele>
        <time>2022-04-04T12:10:36.882Z</time>
      </trkpt>
      <trkpt lat="49.45918" lon="3.70006">
        <ele>102.97</ele>
        <time>2022-04-04T12:10:45.899Z</time>
      </trkpt>
      <trkpt lat="49.45911" lon="3.7002">
        <ele>103.36</ele>
        <time>2022-04-04T12:10:55.000Z</time>
      </trkpt>
      <trkpt lat="49.45904" lon="3.70029">
        <ele>103.39</ele>
        <time>2022-04-04T12:11:04.615Z</time>
      </trkpt>
      <trkpt lat="49.45895" lon="3.7004">
        <ele>103.47</ele>
        <time>2022-04-04T12:11:13.698Z</time>
      </trkpt>
      <trkpt lat="49.45886" lon="3.70051">
        <ele>103.54</ele>
        <time>2022-04-04T12:11:23.061Z</time>
      </trkpt>
      <trkpt lat="49.45877" lon="3.70065">
        <ele>103.81</ele>
        <time>2022-04-04T12:11:32.855Z</time>
      </trkpt>
      <trkpt lat="49.45867" lon="3.70073">
        <ele>104.21</ele>
        <time>2022-04-04T12:11:42.000Z</time>
      </trkpt>
      <trkpt lat="49.45855" lon="3.7008">
        <ele>104.62</ele>
        <time>2022-04-04T12:11:51.578Z</time>
      </trkpt>
      <trkpt lat="49.45845" lon="3.70091">
        <ele>105.02</ele>
        <time>2022-04-04T12:12:00.715Z</time>
      </trkpt>
      <trkpt lat="49.45836" lon="3.70103">
        <ele>105.27</ele>
        <time>2022-04-04T12:12:10.000Z</time>
      </trkpt>
      <trkpt lat="49.45827" lon="3.70112">
        <ele>105.53</ele>
        <time>2022-04-04T12:12:19.333Z</time>
      </trkpt>
      <trkpt lat="49.45816" lon="3.70121">
        <ele>105.43</ele>
        <time>2022-04-04T12:12:28.642Z</time>
      </trkpt>
      <trkpt lat="49.45807" lon="3.70131">
        <ele>105.44</ele>
        <time>2022-04-04T12:12:37.959Z</time>
      </trkpt>
      <trkpt lat="49.45799" lon="3.7014">
        <ele>105.24</ele>
        <time>2022-04-04T12:12:47.000Z</time>
      </trkpt>
      <trkpt lat="49.45789" lon="3.70158">
        <ele>105.12</ele>
        <time>2022-04-04T12:12:56.355Z</time>
      </trkpt>
      <trkpt lat="49.45781" lon="3.70175">
        <ele>105.06</ele>
        <time>2022-04-04T12:13:05.620Z</time>
      </trkpt>
      <trkpt lat="49.4577" lon="3.7019">
        <ele>104.76</ele>
        <time>2022-04-04T12:13:14.716Z</time>
      </trkpt>
      <trkpt lat="49.45761" lon="3.70203">
        <ele>104.3</ele>
        <time>2022-04-04T12:13:23.978Z</time>
      </trkpt>
      <trkpt lat="49.45753" lon="3.70212">
        <ele>103.78</ele>
        <time>2022-04-04T12:13:33.000Z</time>
      </trkpt>
      <trkpt lat="49.45745" lon="3.70221">
        <ele>103.04</ele>
        <time>2022-04-04T12:13:42.396Z</time>
      </trkpt>
      <trkpt lat="49.45737" lon="3.70233">
        <ele>102.11</ele>
        <time>2022-04-04T12:13:51.539Z</time>
      </trkpt>
      <trkpt lat="49.45729" lon="3.70245">
        <ele>101.4</ele>
        <time>2022-04-04T12:14:00.819Z</time>
      </trkpt>
      <trkpt lat="49.45721" lon="3.70259">
        <ele>100.93</ele>
        <time>2022-04-04T12:14:10.000Z</time>
      </trkpt>
      <trkpt lat="49.45713" lon="3.70273">
        <ele>100.94</ele>
        <time>2022-04-04T12:14:19.335Z</time>
      </trkpt>
      <trkpt lat="49.45705" lon="3.70289">
        <ele>100.8</ele>
        <time>2022-04-04T12:14:28.459Z</time>
      </trkpt>
      <trkpt lat="49.45698" lon="3.70301">
        <ele>100.63</ele>
        <time>2022-04-04T12:14:37.603Z</time>
      </trkpt>
      <trkpt lat="49.45688" lon="3.70312">
        <ele>100.81</ele>
        <time>2022-04-04T12:14:46.837Z</time>
      </trkpt>
      <trkpt lat="49.4568" lon="3.70322">
        <ele>101.14</ele>
        <time>2022-04-04T12:14:55.903Z</time>
      </trkpt>
      <trkpt lat="49.45672" lon="3.70337">
        <ele>101.55</ele>
        <time>2022-04-04T12:15:05.136Z</time>
      </trkpt>
      <trkpt lat="49.45664" lon="3.70352">
        <ele>101.87</ele>
        <time>2022-04-04T12:15:14.258Z</time>
      </trkpt>
      <trkpt lat="49.45656" lon="3.70368">
        <ele>102.05</ele>
        <time>2022-04-04T12:15:23.457Z</time>
      </trkpt>
      <trkpt lat="49.45649" lon="3.70384">
        <ele>101.7</ele>
        <time>2022-04-04T12:15:32.599Z</time>
      </trkpt>
      <trkpt lat="49.45641" lon="3.70401">
        <ele>101.56</ele>
        <time>2022-04-04T12:15:41.657Z</time>
      </trkpt>
      <trkpt lat="49.45635" lon="3.70416">
        <ele>101.53</ele>
        <time>2022-04-04T12:15:50.943Z</time>
      </trkpt>
      <trkpt lat="49.45629" lon="3.7043">
        <ele>101.45</ele>
        <time>2022-04-04T12:16:00.000Z</time>
      </trkpt>
      <trkpt lat="49.4562" lon="3.70446">
        <ele>101.46</ele>
        <time>2022-04-04T12:16:09.673Z</time>
      </trkpt>
      <trkpt lat="49.45611" lon="3.70458">
        <ele>101.44</ele>
        <time>2022-04-04T12:16:19.028Z</time>
      </trkpt>
      <trkpt lat="49.45604" lon="3.7047">
        <ele>101.67</ele>
        <time>2022-04-04T12:16:28.988Z</time>
      </trkpt>
      <trkpt lat="49.45597" lon="3.70482">
        <ele>102.47</ele>
        <time>2022-04-04T12:16:38.359Z</time>
      </trkpt>
      <trkpt lat="49.45591" lon="3.70497">
        <ele>103.44</ele>
        <time>2022-04-04T12:16:47.665Z</time>
      </trkpt>
      <trkpt lat="49.45584" lon="3.70511">
        <ele>104.2</ele>
        <time>2022-04-04T12:16:57.004Z</time>
      </trkpt>
      <trkpt lat="49.45576" lon="3.70523">
        <ele>104.88</ele>
        <time>2022-04-04T12:17:06.338Z</time>
      </trkpt>
      <trkpt lat="49.45566" lon="3.70534">
        <ele>104.89</ele>
        <time>2022-04-04T12:17:15.808Z</time>
      </trkpt>
      <trkpt lat="49.45559" lon="3.70545">
        <ele>105.27</ele>
        <time>2022-04-04T12:17:24.902Z</time>
      </trkpt>
      <trkpt lat="49.45551" lon="3.70557">
        <ele>106.16</ele>
        <time>2022-04-04T12:17:34.346Z</time>
      </trkpt>
      <trkpt lat="49.45542" lon="3.70571">
        <ele>107.03</ele>
        <time>2022-04-04T12:17:43.640Z</time>
      </trkpt>
      <trkpt lat="49.45536" lon="3.70581">
        <ele>107.71</ele>
        <time>2022-04-04T12:17:52.759Z</time>
      </trkpt>
      <trkpt lat="49.45526" lon="3.70593">
        <ele>108.53</ele>
        <time>2022-04-04T12:18:01.906Z</time>
      </trkpt>
      <trkpt lat="49.45517" lon="3.70604">
        <ele>109.36</ele>
        <time>2022-04-04T12:18:10.983Z</time>
      </trkpt>
      <trkpt lat="49.45509" lon="3.70612">
        <ele>109.87</ele>
        <time>2022-04-04T12:18:20.083Z</time>
      </trkpt>
      <trkpt lat="49.45501" lon="3.70623">
        <ele>110.35</ele>
        <time>2022-04-04T12:18:29.947Z</time>
      </trkpt>
      <trkpt lat="49.45493" lon="3.70632">
        <ele>110.44</ele>
        <time>2022-04-04T12:18:39.000Z</time>
      </trkpt>
      <trkpt lat="49.45485" lon="3.70643">
        <ele>110.44</ele>
        <time>2022-04-04T12:18:48.919Z</time>
      </trkpt>
      <trkpt lat="49.45475" lon="3.70651">
        <ele>110.83</ele>
        <time>2022-04-04T12:18:58.000Z</time>
      </trkpt>
      <trkpt lat="49.45472" lon="3.70662">
        <ele>111.05</ele>
        <time>2022-04-04T12:19:07.826Z</time>
      </trkpt>
      <trkpt lat="49.45469" lon="3.70669">
        <ele>111.16</ele>
        <time>2022-04-04T12:19:17.000Z</time>
      </trkpt>
      <trkpt lat="49.45465" lon="3.70674">
        <ele>111.17</ele>
        <time>2022-04-04T12:19:27.105Z</time>
      </trkpt>
      <trkpt lat="49.45456" lon="3.70687">
        <ele>111.49</ele>
        <time>2022-04-04T12:19:37.000Z</time>
      </trkpt>
      <trkpt lat="49.45447" lon="3.70688">
        <ele>111.39</ele>
        <time>2022-04-04T12:19:46.725Z</time>
      </trkpt>
      <trkpt lat="49.45438" lon="3.70687">
        <ele>111.26</ele>
        <time>2022-04-04T12:19:56.023Z</time>
      </trkpt>
      <trkpt lat="49.45425" lon="3.70683">
        <ele>111.26</ele>
        <time>2022-04-04T12:20:05.463Z</time>
      </trkpt>
      <trkpt lat="49.45413" lon="3.70677">
        <ele>111.11</ele>
        <time>2022-04-04T12:20:14.907Z</time>
      </trkpt>
      <trkpt lat="49.45399" lon="3.70669">
        <ele>110.73</ele>
        <time>2022-04-04T12:20:24.967Z</time>
      </trkpt>
      <trkpt lat="49.45389" lon="3.70665">
        <ele>110.58</ele>
        <time>2022-04-04T12:20:34.000Z</time>
      </trkpt>
      <trkpt lat="49.45377" lon="3.70659">
        <ele>110.52</ele>
        <time>2022-04-04T12:20:43.723Z</time>
      </trkpt>
      <trkpt lat="49.45367" lon="3.70656">
        <ele>110.7</ele>
        <time>2022-04-04T12:20:52.865Z</time>
      </trkpt>
      <trkpt lat="49.45354" lon="3.70653">
        <ele>110.86</ele>
        <time>2022-04-04T12:21:03.000Z</time>
      </trkpt>
      <trkpt lat="49.45344" lon="3.70653">
        <ele>110.87</ele>
        <time>2022-04-04T12:21:12.784Z</time>
      </trkpt>
      <trkpt lat="49.45334" lon="3.70658">
        <ele>110.62</ele>
        <time>2022-04-04T12:21:22.205Z</time>
      </trkpt>
      <trkpt lat="49.45321" lon="3.70663">
        <ele>110.52</ele>
        <time>2022-04-04T12:21:31.719Z</time>
      </trkpt>
      <trkpt lat="49.45309" lon="3.70666">
        <ele>110.18</ele>
        <time>2022-04-04T12:21:41.089Z</time>
      </trkpt>
      <trkpt lat="49.45296" lon="3.70666">
        <ele>110.35</ele>
        <time>2022-04-04T12:21:50.663Z</time>
      </trkpt>
      <trkpt lat="49.4529" lon="3.70675">
        <ele>110.5</ele>
        <time>2022-04-04T12:21:59.906Z</time>
      </trkpt>
      <trkpt lat="49.45282" lon="3.70687">
        <ele>110.62</ele>
        <time>2022-04-04T12:22:09.122Z</time>
      </trkpt>
      <trkpt lat="49.45274" lon="3.70693">
        <ele>110.63</ele>
        <time>2022-04-04T12:22:18.727Z</time>
      </trkpt>
      <trkpt lat="49.4526" lon="3.70701">
        <ele>110.5</ele>
        <time>2022-04-04T12:22:27.861Z</time>
      </trkpt>
      <trkpt lat="49.45249" lon="3.7071">
        <ele>110.57</ele>
        <time>2022-04-04T12:22:36.903Z</time>
      </trkpt>
      <trkpt lat="49.45239" lon="3.70717">
        <ele>110.56</ele>
        <time>2022-04-04T12:22:45.968Z</time>
      </trkpt>
      <trkpt lat="49.45229" lon="3.70722">
        <ele>110.55</ele>
        <time>2022-04-04T12:22:55.444Z</time>
      </trkpt>
      <trkpt lat="49.45218" lon="3.7073">
        <ele>110.46</ele>
        <time>2022-04-04T12:23:04.449Z</time>
      </trkpt>
      <trkpt lat="49.45208" lon="3.70738">
        <ele>110.42</ele>
        <time>2022-04-04T12:23:13.808Z</time>
      </trkpt>
      <trkpt lat="49.45198" lon="3.70747">
        <ele>110.51</ele>
        <time>2022-04-04T12:23:23.000Z</time>
      </trkpt>
      <trkpt lat="49.45191" lon="3.70757">
        <ele>110.76</ele>
        <time>2022-04-04T12:23:32.443Z</time>
      </trkpt>
      <trkpt lat="49.45183" lon="3.7077">
        <ele>111.29</ele>
        <time>2022-04-04T12:23:41.489Z</time>
      </trkpt>
      <trkpt lat="49.45175" lon="3.70783">
        <ele>111.65</ele>
        <time>2022-04-04T12:23:50.506Z</time>
      </trkpt>
      <trkpt lat="49.45167" lon="3.70798">
        <ele>112.25</ele>
        <time>2022-04-04T12:24:00.043Z</time>
      </trkpt>
      <trkpt lat="49.45159" lon="3.7081">
        <ele>112.94</ele>
        <time>2022-04-04T12:24:09.525Z</time>
      </trkpt>
      <trkpt lat="49.45151" lon="3.70821">
        <ele>113.27</ele>
        <time>2022-04-04T12:24:19.023Z</time>
      </trkpt>
      <trkpt lat="49.45143" lon="3.70833">
        <ele>113.86</ele>
        <time>2022-04-04T12:24:28.521Z</time>
      </trkpt>
      <trkpt lat="49.45137" lon="3.70851">
        <ele>114.41</ele>
        <time>2022-04-04T12:24:38.086Z</time>
      </trkpt>
      <trkpt lat="49.45132" lon="3.70869">
        <ele>115.22</ele>
        <time>2022-04-04T12:24:47.539Z</time>
      </trkpt>
      <trkpt lat="49.45131" lon="3.70887">
        <ele>116.1</ele>
        <time>2022-04-04T12:24:57.087Z</time>
      </trkpt>
      <trkpt lat="49.45133" lon="3.70908">
        <ele>116.68</ele>
        <time>2022-04-04T12:25:06.259Z</time>
      </trkpt>
      <trkpt lat="49.45135" lon="3.70924">
        <ele>117.09</ele>
        <time>2022-04-04T12:25:15.366Z</time>
      </trkpt>
      <trkpt lat="49.4514" lon="3.70936">
        <ele>117.31</ele>
        <time>2022-04-04T12:25:25.000Z</time>
      </trkpt>
      <trkpt lat="49.45142" lon="3.70946">
        <ele>117.51</ele>
        <time>2022-04-04T12:25:35.000Z</time>
      </trkpt>
      <trkpt lat="49.45148" lon="3.70951">
        <ele>117.61</ele>
        <time>2022-04-04T12:25:45.020Z</time>
      </trkpt>
      <trkpt lat="49.45148" lon="3.70971">
        <ele>117.5</ele>
        <time>2022-04-04T12:25:54.483Z</time>
      </trkpt>
      <trkpt lat="49.45148" lon="3.70988">
        <ele>117.47</ele>
        <time>2022-04-04T12:26:04.000Z</time>
      </trkpt>
      <trkpt lat="49.45148" lon="3.71006">
        <ele>118.04</ele>
        <time>2022-04-04T12:26:13.238Z</time>
      </trkpt>
      <trkpt lat="49.45147" lon="3.7103">
        <ele>118.84</ele>
        <time>2022-04-04T12:26:22.665Z</time>
      </trkpt>
      <trkpt lat="49.45147" lon="3.7105">
        <ele>119.95</ele>
        <time>2022-04-04T12:26:32.000Z</time>
      </trkpt>
      <trkpt lat="49.45145" lon="3.71068">
        <ele>120.81</ele>
        <time>2022-04-04T12:26:42.114Z</time>
      </trkpt>
      <trkpt lat="49.4514" lon="3.71086">
        <ele>121.47</ele>
        <time>2022-04-04T12:26:51.607Z</time>
      </trkpt>
      <trkpt lat="49.45135" lon="3.71101">
        <ele>122.07</ele>
        <time>2022-04-04T12:27:01.030Z</time>
      </trkpt>
      <trkpt lat="49.4513" lon="3.71117">
        <ele>122.35</ele>
        <time>2022-04-04T12:27:10.040Z</time>
      </trkpt>
      <trkpt lat="49.45124" lon="3.71131">
        <ele>122.41</ele>
        <time>2022-04-04T12:27:19.606Z</time>
      </trkpt>
      <trkpt lat="49.45118" lon="3.71144">
        <ele>122.51</ele>
        <time>2022-04-04T12:27:29.000Z</time>
      </trkpt>
      <trkpt lat="49.45114" lon="3.71157">
        <ele>122.65</ele>
        <time>2022-04-04T12:27:38.239Z</time>
      </trkpt>
      <trkpt lat="49.4511" lon="3.71172">
        <ele>123.2</ele>
        <time>2022-04-04T12:27:47.366Z</time>
      </trkpt>
      <trkpt lat="49.45105" lon="3.71188">
        <ele>123.94</ele>
        <time>2022-04-04T12:27:56.598Z</time>
      </trkpt>
      <trkpt lat="49.451" lon="3.71205">
        <ele>124.75</ele>
        <time>2022-04-04T12:28:06.090Z</time>
      </trkpt>
      <trkpt lat="49.45095" lon="3.7122">
        <ele>125.8</ele>
        <time>2022-04-04T12:28:15.487Z</time>
      </trkpt>
      <trkpt lat="49.4509" lon="3.71233">
        <ele>126.44</ele>
        <time>2022-04-04T12:28:24.966Z</time>
      </trkpt>
      <trkpt lat="49.45085" lon="3.71246">
        <ele>126.96</ele>
        <time>2022-04-04T12:28:34.258Z</time>
      </trkpt>
      <trkpt lat="49.45082" lon="3.71252">
        <ele>127.52</ele>
        <time>2022-04-04T12:28:43.687Z</time>
      </trkpt>
      <trkpt lat="49.45081" lon="3.71262">
        <ele>128</ele>
        <time>2022-04-04T12:28:53.000Z</time>
      </trkpt>
      <trkpt lat="49.45077" lon="3.71267">
        <ele>128.78</ele>
        <time>2022-04-04T12:29:03.000Z</time>
      </trkpt>
      <trkpt lat="49.45077" lon="3.7127">
        <ele>129.04</ele>
        <time>2022-04-04T12:29:20.000Z</time>
      </trkpt>
      <trkpt lat="49.4508" lon="3.71275">
        <ele>128.9</ele>
        <time>2022-04-04T12:29:30.000Z</time>
      </trkpt>
      <trkpt lat="49.45078" lon="3.71278">
        <ele>129.18</ele>
        <time>2022-04-04T12:29:40.000Z</time>
      </trkpt>
      <trkpt lat="49.45079" lon="3.71277">
        <ele>129.72</ele>
        <time>2022-04-04T12:29:51.000Z</time>
      </trkpt>
      <trkpt lat="49.45079" lon="3.71275">
        <ele>131.77</ele>
        <time>2022-04-04T12:30:17.000Z</time>
      </trkpt>
      <trkpt lat="49.45077" lon="3.71279">
        <ele>132.13</ele>
        <time>2022-04-04T12:30:27.000Z</time>
      </trkpt>
      <trkpt lat="49.45078" lon="3.71283">
        <ele>132.51</ele>
        <time>2022-04-04T12:30:38.000Z</time>
      </trkpt>
      <trkpt lat="49.45076" lon="3.71282">
        <ele>132</ele>
        <time>2022-04-04T12:31:02.000Z</time>
      </trkpt>
      <trkpt lat="49.45073" lon="3.71281">
        <ele>131.46</ele>
        <time>2022-04-04T12:31:12.000Z</time>
      </trkpt>
      <trkpt lat="49.45076" lon="3.71279">
        <ele>130.59</ele>
        <time>2022-04-04T12:31:22.000Z</time>
      </trkpt>
      <trkpt lat="49.45082" lon="3.71285">
        <ele>130.17</ele>
        <time>2022-04-04T12:31:32.000Z</time>
      </trkpt>
      <trkpt lat="49.45083" lon="3.71293">
        <ele>130.02</ele>
        <time>2022-04-04T12:31:42.000Z</time>
      </trkpt>
      <trkpt lat="49.45083" lon="3.71296">
        <ele>129.76</ele>
        <time>2022-04-04T12:32:21.000Z</time>
      </trkpt>
      <trkpt lat="49.45085" lon="3.71305">
        <ele>129.84</ele>
        <time>2022-04-04T12:32:30.419Z</time>
      </trkpt>
      <trkpt lat="49.45081" lon="3.71322">
        <ele>129.01</ele>
        <time>2022-04-04T12:32:40.000Z</time>
      </trkpt>
      <trkpt lat="49.45079" lon="3.71333">
        <ele>127.85</ele>
        <time>2022-04-04T12:32:49.187Z</time>
      </trkpt>
      <trkpt lat="49.45078" lon="3.71348">
        <ele>126.67</ele>
        <time>2022-04-04T12:32:58.585Z</time>
      </trkpt>
      <trkpt lat="49.45075" lon="3.71368">
        <ele>125.33</ele>
        <time>2022-04-04T12:33:08.000Z</time>
      </trkpt>
      <trkpt lat="49.45075" lon="3.71388">
        <ele>124.31</ele>
        <time>2022-04-04T12:33:17.426Z</time>
      </trkpt>
      <trkpt lat="49.45077" lon="3.71407">
        <ele>123.81</ele>
        <time>2022-04-04T12:33:26.806Z</time>
      </trkpt>
      <trkpt lat="49.45075" lon="3.71422">
        <ele>122.88</ele>
        <time>2022-04-04T12:33:36.001Z</time>
      </trkpt>
      <trkpt lat="49.45073" lon="3.71439">
        <ele>122.3</ele>
        <time>2022-04-04T12:33:45.348Z</time>
      </trkpt>
      <trkpt lat="49.45069" lon="3.71453">
        <ele>121.87</ele>
        <time>2022-04-04T12:33:54.960Z</time>
      </trkpt>
      <trkpt lat="49.45065" lon="3.71464">
        <ele>121.51</ele>
        <time>2022-04-04T12:34:04.383Z</time>
      </trkpt>
      <trkpt lat="49.4506" lon="3.7148">
        <ele>121.39</ele>
        <time>2022-04-04T12:34:13.785Z</time>
      </trkpt>
      <trkpt lat="49.45057" lon="3.71498">
        <ele>120.97</ele>
        <time>2022-04-04T12:34:23.000Z</time>
      </trkpt>
      <trkpt lat="49.45053" lon="3.71514">
        <ele>120.05</ele>
        <time>2022-04-04T12:34:32.645Z</time>
      </trkpt>
      <trkpt lat="49.4505" lon="3.71531">
        <ele>120.2</ele>
        <time>2022-04-04T12:34:41.968Z</time>
      </trkpt>
      <trkpt lat="49.45052" lon="3.71551">
        <ele>120.73</ele>
        <time>2022-04-04T12:34:51.000Z</time>
      </trkpt>
      <trkpt lat="49.45049" lon="3.71568">
        <ele>120.98</ele>
        <time>2022-04-04T12:35:00.867Z</time>
      </trkpt>
      <trkpt lat="49.45043" lon="3.71584">
        <ele>120.81</ele>
        <time>2022-04-04T12:35:10.000Z</time>
      </trkpt>
      <trkpt lat="49.4504" lon="3.71598">
        <ele>119.15</ele>
        <time>2022-04-04T12:35:19.819Z</time>
      </trkpt>
      <trkpt lat="49.4504" lon="3.71615">
        <ele>117.03</ele>
        <time>2022-04-04T12:35:28.986Z</time>
      </trkpt>
      <trkpt lat="49.45044" lon="3.71628">
        <ele>114.26</ele>
        <time>2022-04-04T12:35:38.201Z</time>
      </trkpt>
      <trkpt lat="49.45048" lon="3.71644">
        <ele>111.85</ele>
        <time>2022-04-04T12:35:47.429Z</time>
      </trkpt>
      <trkpt lat="49.45054" lon="3.71659">
        <ele>109.72</ele>
        <time>2022-04-04T12:35:57.000Z</time>
      </trkpt>
      <trkpt lat="49.4506" lon="3.71676">
        <ele>108.27</ele>
        <time>2022-04-04T12:36:06.802Z</time>
      </trkpt>
      <trkpt lat="49.4507" lon="3.7169">
        <ele>107.65</ele>
        <time>2022-04-04T12:36:16.000Z</time>
      </trkpt>
      <trkpt lat="49.4507" lon="3.71706">
        <ele>107.44</ele>
        <time>2022-04-04T12:36:26.006Z</time>
      </trkpt>
      <trkpt lat="49.45064" lon="3.71719">
        <ele>108.3</ele>
        <time>2022-04-04T12:36:35.041Z</time>
      </trkpt>
      <trkpt lat="49.4506" lon="3.71729">
        <ele>109.5</ele>
        <time>2022-04-04T12:36:45.067Z</time>
      </trkpt>
      <trkpt lat="49.45059" lon="3.71733">
        <ele>110.12</ele>
        <time>2022-04-04T12:36:55.000Z</time>
      </trkpt>
      <trkpt lat="49.45061" lon="3.7173">
        <ele>113.74</ele>
        <time>2022-04-04T12:38:33.000Z</time>
      </trkpt>
      <trkpt lat="49.45062" lon="3.71727">
        <ele>115.25</ele>
        <time>2022-04-04T12:38:43.000Z</time>
      </trkpt>
      <trkpt lat="49.45051" lon="3.71733">
        <ele>116.13</ele>
        <time>2022-04-04T12:38:53.000Z</time>
      </trkpt>
      <trkpt lat="49.45043" lon="3.71749">
        <ele>116.51</ele>
        <time>2022-04-04T12:39:02.620Z</time>
      </trkpt>
      <trkpt lat="49.45036" lon="3.71765">
        <ele>116.27</ele>
        <time>2022-04-04T12:39:12.000Z</time>
      </trkpt>
      <trkpt lat="49.45027" lon="3.71775">
        <ele>115.83</ele>
        <time>2022-04-04T12:39:21.403Z</time>
      </trkpt>
      <trkpt lat="49.45019" lon="3.71786">
        <ele>115.32</ele>
        <time>2022-04-04T12:39:30.648Z</time>
      </trkpt>
      <trkpt lat="49.45015" lon="3.71797">
        <ele>115.46</ele>
        <time>2022-04-04T12:39:40.244Z</time>
      </trkpt>
      <trkpt lat="49.45013" lon="3.71812">
        <ele>115.87</ele>
        <time>2022-04-04T12:39:49.842Z</time>
      </trkpt>
      <trkpt lat="49.45013" lon="3.71828">
        <ele>116.3</ele>
        <time>2022-04-04T12:39:59.000Z</time>
      </trkpt>
      <trkpt lat="49.45012" lon="3.71846">
        <ele>116.28</ele>
        <time>2022-04-04T12:40:08.003Z</time>
      </trkpt>
      <trkpt lat="49.45012" lon="3.71859">
        <ele>117</ele>
        <time>2022-04-04T12:40:17.342Z</time>
      </trkpt>
      <trkpt lat="49.45017" lon="3.71873">
        <ele>118.56</ele>
        <time>2022-04-04T12:40:26.718Z</time>
      </trkpt>
      <trkpt lat="49.45015" lon="3.71888">
        <ele>120.12</ele>
        <time>2022-04-04T12:40:36.227Z</time>
      </trkpt>
      <trkpt lat="49.45016" lon="3.71903">
        <ele>121.98</ele>
        <time>2022-04-04T12:40:45.725Z</time>
      </trkpt>
      <trkpt lat="49.4502" lon="3.71914">
        <ele>123.27</ele>
        <time>2022-04-04T12:40:55.000Z</time>
      </trkpt>
      <trkpt lat="49.45025" lon="3.71927">
        <ele>124.52</ele>
        <time>2022-04-04T12:41:04.861Z</time>
      </trkpt>
      <trkpt lat="49.45031" lon="3.71943">
        <ele>125.83</ele>
        <time>2022-04-04T12:41:14.982Z</time>
      </trkpt>
      <trkpt lat="49.4503" lon="3.71961">
        <ele>126.83</ele>
        <time>2022-04-04T12:41:25.026Z</time>
      </trkpt>
      <trkpt lat="49.45028" lon="3.7198">
        <ele>127.81</ele>
        <time>2022-04-04T12:41:34.583Z</time>
      </trkpt>
      <trkpt lat="49.4502" lon="3.71995">
        <ele>127.96</ele>
        <time>2022-04-04T12:41:43.827Z</time>
      </trkpt>
      <trkpt lat="49.45014" lon="3.7201">
        <ele>128.24</ele>
        <time>2022-04-04T12:41:52.920Z</time>
      </trkpt>
      <trkpt lat="49.45016" lon="3.72028">
        <ele>128.42</ele>
        <time>2022-04-04T12:42:02.818Z</time>
      </trkpt>
      <trkpt lat="49.45014" lon="3.72045">
        <ele>128.81</ele>
        <time>2022-04-04T12:42:12.000Z</time>
      </trkpt>
      <trkpt lat="49.45007" lon="3.72057">
        <ele>129.01</ele>
        <time>2022-04-04T12:42:22.033Z</time>
      </trkpt>
      <trkpt lat="49.45003" lon="3.7207">
        <ele>129.47</ele>
        <time>2022-04-04T12:42:31.847Z</time>
      </trkpt>
      <trkpt lat="49.45003" lon="3.72084">
        <ele>129.75</ele>
        <time>2022-04-04T12:42:41.408Z</time>
      </trkpt>
      <trkpt lat="49.45004" lon="3.721">
        <ele>130.15</ele>
        <time>2022-04-04T12:42:51.000Z</time>
      </trkpt>
      <trkpt lat="49.45005" lon="3.72115">
        <ele>130.59</ele>
        <time>2022-04-04T12:43:00.965Z</time>
      </trkpt>
      <trkpt lat="49.45002" lon="3.72131">
        <ele>130.51</ele>
        <time>2022-04-04T12:43:10.000Z</time>
      </trkpt>
      <trkpt lat="49.44999" lon="3.72141">
        <ele>130.45</ele>
        <time>2022-04-04T12:43:19.948Z</time>
      </trkpt>
      <trkpt lat="49.44996" lon="3.72151">
        <ele>130.58</ele>
        <time>2022-04-04T12:43:29.000Z</time>
      </trkpt>
      <trkpt lat="49.4499" lon="3.72161">
        <ele>130.82</ele>
        <time>2022-04-04T12:43:38.007Z</time>
      </trkpt>
      <trkpt lat="49.44985" lon="3.72175">
        <ele>130.99</ele>
        <time>2022-04-04T12:43:47.506Z</time>
      </trkpt>
      <trkpt lat="49.44981" lon="3.72185">
        <ele>131.12</ele>
        <time>2022-04-04T12:43:56.828Z</time>
      </trkpt>
      <trkpt lat="49.4498" lon="3.72191">
        <ele>132.16</ele>
        <time>2022-04-04T12:44:06.000Z</time>
      </trkpt>
      <trkpt lat="49.44975" lon="3.72201">
        <ele>133.09</ele>
        <time>2022-04-04T12:44:15.529Z</time>
      </trkpt>
      <trkpt lat="49.44968" lon="3.72215">
        <ele>133.74</ele>
        <time>2022-04-04T12:44:24.723Z</time>
      </trkpt>
      <trkpt lat="49.4496" lon="3.7223">
        <ele>134.37</ele>
        <time>2022-04-04T12:44:33.925Z</time>
      </trkpt>
      <trkpt lat="49.44952" lon="3.72245">
        <ele>134.73</ele>
        <time>2022-04-04T12:44:43.006Z</time>
      </trkpt>
      <trkpt lat="49.44944" lon="3.7226">
        <ele>135.08</ele>
        <time>2022-04-04T12:44:52.682Z</time>
      </trkpt>
      <trkpt lat="49.44937" lon="3.72271">
        <ele>135.44</ele>
        <time>2022-04-04T12:45:02.000Z</time>
      </trkpt>
      <trkpt lat="49.44931" lon="3.7228">
        <ele>135.81</ele>
        <time>2022-04-04T12:45:11.726Z</time>
      </trkpt>
      <trkpt lat="49.44929" lon="3.72292">
        <ele>136.21</ele>
        <time>2022-04-04T12:45:21.000Z</time>
      </trkpt>
      <trkpt lat="49.44934" lon="3.72299">
        <ele>136.65</ele>
        <time>2022-04-04T12:45:31.000Z</time>
      </trkpt>
      <trkpt lat="49.44937" lon="3.72297">
        <ele>136.11</ele>
        <time>2022-04-04T12:45:40.561Z</time>
      </trkpt>
      <trkpt lat="49.44931" lon="3.72307">
        <ele>135.42</ele>
        <time>2022-04-04T12:45:49.962Z</time>
      </trkpt>
      <trkpt lat="49.44925" lon="3.72324">
        <ele>134.64</ele>
        <time>2022-04-04T12:45:59.000Z</time>
      </trkpt>
      <trkpt lat="49.44926" lon="3.72349">
        <ele>134.55</ele>
        <time>2022-04-04T12:46:08.306Z</time>
      </trkpt>
      <trkpt lat="49.44923" lon="3.72364">
        <ele>135.09</ele>
        <time>2022-04-04T12:46:17.525Z</time>
      </trkpt>
      <trkpt lat="49.4492" lon="3.72368">
        <ele>135.31</ele>
        <time>2022-04-04T12:46:27.000Z</time>
      </trkpt>
      <trkpt lat="49.44911" lon="3.72371">
        <ele>135.36</ele>
        <time>2022-04-04T12:46:36.458Z</time>
      </trkpt>
      <trkpt lat="49.44912" lon="3.72388">
        <ele>134.98</ele>
        <time>2022-04-04T12:46:45.943Z</time>
      </trkpt>
      <trkpt lat="49.44912" lon="3.72403">
        <ele>134.46</ele>
        <time>2022-04-04T12:46:55.000Z</time>
      </trkpt>
      <trkpt lat="49.44905" lon="3.7241">
        <ele>134.34</ele>
        <time>2022-04-04T12:47:04.781Z</time>
      </trkpt>
      <trkpt lat="49.449" lon="3.72421">
        <ele>134.39</ele>
        <time>2022-04-04T12:47:14.000Z</time>
      </trkpt>
      <trkpt lat="49.4489" lon="3.72447">
        <ele>134.7</ele>
        <time>2022-04-04T12:47:23.399Z</time>
      </trkpt>
      <trkpt lat="49.44883" lon="3.72463">
        <ele>134.97</ele>
        <time>2022-04-04T12:47:32.442Z</time>
      </trkpt>
      <trkpt lat="49.44878" lon="3.72479">
        <ele>134.47</ele>
        <time>2022-04-04T12:47:41.638Z</time>
      </trkpt>
      <trkpt lat="49.44875" lon="3.72494">
        <ele>133.61</ele>
        <time>2022-04-04T12:47:50.681Z</time>
      </trkpt>
      <trkpt lat="49.4487" lon="3.72512">
        <ele>133.31</ele>
        <time>2022-04-04T12:47:59.848Z</time>
      </trkpt>
      <trkpt lat="49.44863" lon="3.72523">
        <ele>132.86</ele>
        <time>2022-04-04T12:48:08.939Z</time>
      </trkpt>
      <trkpt lat="49.44856" lon="3.72531">
        <ele>131.93</ele>
        <time>2022-04-04T12:48:18.000Z</time>
      </trkpt>
      <trkpt lat="49.44852" lon="3.72542">
        <ele>130.41</ele>
        <time>2022-04-04T12:48:27.585Z</time>
      </trkpt>
      <trkpt lat="49.44846" lon="3.7256">
        <ele>129.14</ele>
        <time>2022-04-04T12:48:37.000Z</time>
      </trkpt>
      <trkpt lat="49.44839" lon="3.72571">
        <ele>128.35</ele>
        <time>2022-04-04T12:48:46.304Z</time>
      </trkpt>
      <trkpt lat="49.44834" lon="3.72583">
        <ele>128.09</ele>
        <time>2022-04-04T12:48:55.567Z</time>
      </trkpt>
      <trkpt lat="49.44828" lon="3.72588">
        <ele>127.46</ele>
        <time>2022-04-04T12:49:04.724Z</time>
      </trkpt>
      <trkpt lat="49.4482" lon="3.72593">
        <ele>126.81</ele>
        <time>2022-04-04T12:49:14.000Z</time>
      </trkpt>
      <trkpt lat="49.44813" lon="3.72606">
        <ele>126.24</ele>
        <time>2022-04-04T12:49:23.587Z</time>
      </trkpt>
      <trkpt lat="49.44804" lon="3.72614">
        <ele>125.7</ele>
        <time>2022-04-04T12:49:33.001Z</time>
      </trkpt>
      <trkpt lat="49.44795" lon="3.72621">
        <ele>124.79</ele>
        <time>2022-04-04T12:49:43.000Z</time>
      </trkpt>
      <trkpt lat="49.44789" lon="3.72632">
        <ele>124.17</ele>
        <time>2022-04-04T12:49:52.007Z</time>
      </trkpt>
      <trkpt lat="49.44782" lon="3.72645">
        <ele>124.13</ele>
        <time>2022-04-04T12:50:01.705Z</time>
      </trkpt>
      <trkpt lat="49.44776" lon="3.72651">
        <ele>124.36</ele>
        <time>2022-04-04T12:50:10.865Z</time>
      </trkpt>
      <trkpt lat="49.4477" lon="3.7266">
        <ele>125.05</ele>
        <time>2022-04-04T12:50:20.058Z</time>
      </trkpt>
      <trkpt lat="49.44761" lon="3.72664">
        <ele>125.72</ele>
        <time>2022-04-04T12:50:29.665Z</time>
      </trkpt>
      <trkpt lat="49.44752" lon="3.72666">
        <ele>126.28</ele>
        <time>2022-04-04T12:50:39.000Z</time>
      </trkpt>
      <trkpt lat="49.44746" lon="3.72678">
        <ele>126.29</ele>
        <time>2022-04-04T12:50:49.000Z</time>
      </trkpt>
      <trkpt lat="49.44742" lon="3.72691">
        <ele>126.45</ele>
        <time>2022-04-04T12:50:58.782Z</time>
      </trkpt>
      <trkpt lat="49.44736" lon="3.72695">
        <ele>126.02</ele>
        <time>2022-04-04T12:51:08.000Z</time>
      </trkpt>
      <trkpt lat="49.44728" lon="3.72697">
        <ele>125.42</ele>
        <time>2022-04-04T12:51:17.063Z</time>
      </trkpt>
      <trkpt lat="49.44721" lon="3.72718">
        <ele>124.64</ele>
        <time>2022-04-04T12:51:27.031Z</time>
      </trkpt>
      <trkpt lat="49.44713" lon="3.72732">
        <ele>124.65</ele>
        <time>2022-04-04T12:51:36.424Z</time>
      </trkpt>
      <trkpt lat="49.44708" lon="3.72747">
        <ele>125.33</ele>
        <time>2022-04-04T12:51:45.587Z</time>
      </trkpt>
      <trkpt lat="49.44702" lon="3.7276">
        <ele>126.08</ele>
        <time>2022-04-04T12:51:55.000Z</time>
      </trkpt>
      <trkpt lat="49.44696" lon="3.72772">
        <ele>127.13</ele>
        <time>2022-04-04T12:52:04.345Z</time>
      </trkpt>
      <trkpt lat="49.44687" lon="3.72784">
        <ele>127.97</ele>
        <time>2022-04-04T12:52:13.767Z</time>
      </trkpt>
      <trkpt lat="49.44683" lon="3.72804">
        <ele>128.44</ele>
        <time>2022-04-04T12:52:22.858Z</time>
      </trkpt>
      <trkpt lat="49.44682" lon="3.72821">
        <ele>128.43</ele>
        <time>2022-04-04T12:52:31.964Z</time>
      </trkpt>
      <trkpt lat="49.44684" lon="3.72835">
        <ele>128.21</ele>
        <time>2022-04-04T12:52:41.000Z</time>
      </trkpt>
      <trkpt lat="49.44686" lon="3.72843">
        <ele>127.88</ele>
        <time>2022-04-04T12:52:50.367Z</time>
      </trkpt>
      <trkpt lat="49.44684" lon="3.72856">
        <ele>127.48</ele>
        <time>2022-04-04T12:53:00.000Z</time>
      </trkpt>
      <trkpt lat="49.44678" lon="3.72867">
        <ele>126.66</ele>
        <time>2022-04-04T12:53:09.005Z</time>
      </trkpt>
      <trkpt lat="49.44673" lon="3.72883">
        <ele>126.06</ele>
        <time>2022-04-04T12:53:18.542Z</time>
      </trkpt>
      <trkpt lat="49.44675" lon="3.72899">
        <ele>125.6</ele>
        <time>2022-04-04T12:53:28.007Z</time>
      </trkpt>
      <trkpt lat="49.44678" lon="3.7291">
        <ele>125.09</ele>
        <time>2022-04-04T12:53:37.247Z</time>
      </trkpt>
      <trkpt lat="49.44686" lon="3.72916">
        <ele>125.56</ele>
        <time>2022-04-04T12:53:47.000Z</time>
      </trkpt>
      <trkpt lat="49.44688" lon="3.72928">
        <ele>126.24</ele>
        <time>2022-04-04T12:53:56.527Z</time>
      </trkpt>
      <trkpt lat="49.4469" lon="3.7294">
        <ele>126.66</ele>
        <time>2022-04-04T12:54:05.723Z</time>
      </trkpt>
      <trkpt lat="49.44687" lon="3.72961">
        <ele>126.63</ele>
        <time>2022-04-04T12:54:15.000Z</time>
      </trkpt>
      <trkpt lat="49.44688" lon="3.72976">
        <ele>126.2</ele>
        <time>2022-04-04T12:54:24.302Z</time>
      </trkpt>
      <trkpt lat="49.44693" lon="3.72989">
        <ele>126.25</ele>
        <time>2022-04-04T12:54:33.778Z</time>
      </trkpt>
      <trkpt lat="49.44696" lon="3.73">
        <ele>126.22</ele>
        <time>2022-04-04T12:54:43.000Z</time>
      </trkpt>
      <trkpt lat="49.44701" lon="3.73015">
        <ele>126.74</ele>
        <time>2022-04-04T12:54:53.000Z</time>
      </trkpt>
      <trkpt lat="49.44705" lon="3.73031">
        <ele>127.99</ele>
        <time>2022-04-04T12:55:02.787Z</time>
      </trkpt>
      <trkpt lat="49.44707" lon="3.73047">
        <ele>128.94</ele>
        <time>2022-04-04T12:55:12.000Z</time>
      </trkpt>
      <trkpt lat="49.44712" lon="3.73058">
        <ele>130.02</ele>
        <time>2022-04-04T12:55:21.863Z</time>
      </trkpt>
      <trkpt lat="49.44708" lon="3.73072">
        <ele>130.61</ele>
        <time>2022-04-04T12:55:30.979Z</time>
      </trkpt>
      <trkpt lat="49.44711" lon="3.73084">
        <ele>131.69</ele>
        <time>2022-04-04T12:55:41.000Z</time>
      </trkpt>
      <trkpt lat="49.44709" lon="3.73096">
        <ele>132.65</ele>
        <time>2022-04-04T12:55:51.081Z</time>
      </trkpt>
      <trkpt lat="49.44711" lon="3.73112">
        <ele>133.55</ele>
        <time>2022-04-04T12:56:00.520Z</time>
      </trkpt>
      <trkpt lat="49.44713" lon="3.73127">
        <ele>133.94</ele>
        <time>2022-04-04T12:56:09.762Z</time>
      </trkpt>
      <trkpt lat="49.44713" lon="3.73143">
        <ele>134.48</ele>
        <time>2022-04-04T12:56:18.804Z</time>
      </trkpt>
      <trkpt lat="49.4472" lon="3.73154">
        <ele>134.64</ele>
        <time>2022-04-04T12:56:27.964Z</time>
      </trkpt>
      <trkpt lat="49.44726" lon="3.73166">
        <ele>134.98</ele>
        <time>2022-04-04T12:56:37.000Z</time>
      </trkpt>
      <trkpt lat="49.44733" lon="3.73178">
        <ele>135.2</ele>
        <time>2022-04-04T12:56:46.448Z</time>
      </trkpt>
      <trkpt lat="49.44732" lon="3.73194">
        <ele>134.81</ele>
        <time>2022-04-04T12:56:55.728Z</time>
      </trkpt>
      <trkpt lat="49.44732" lon="3.73206">
        <ele>134.41</ele>
        <time>2022-04-04T12:57:04.828Z</time>
      </trkpt>
      <trkpt lat="49.44742" lon="3.73213">
        <ele>134.65</ele>
        <time>2022-04-04T12:57:14.771Z</time>
      </trkpt>
      <trkpt lat="49.44748" lon="3.7323">
        <ele>135.06</ele>
        <time>2022-04-04T12:57:24.760Z</time>
      </trkpt>
      <trkpt lat="49.44753" lon="3.73246">
        <ele>135.51</ele>
        <time>2022-04-04T12:57:34.924Z</time>
      </trkpt>
      <trkpt lat="49.44759" lon="3.73261">
        <ele>136.38</ele>
        <time>2022-04-04T12:57:43.961Z</time>
      </trkpt>
      <trkpt lat="49.44759" lon="3.73282">
        <ele>137.06</ele>
        <time>2022-04-04T12:57:53.842Z</time>
      </trkpt>
      <trkpt lat="49.44754" lon="3.73302">
        <ele>136.87</ele>
        <time>2022-04-04T12:58:02.987Z</time>
      </trkpt>
      <trkpt lat="49.44754" lon="3.73319">
        <ele>137.32</ele>
        <time>2022-04-04T12:58:12.000Z</time>
      </trkpt>
      <trkpt lat="49.44755" lon="3.73335">
        <ele>138.06</ele>
        <time>2022-04-04T12:58:21.583Z</time>
      </trkpt>
      <trkpt lat="49.44758" lon="3.73349">
        <ele>138.8</ele>
        <time>2022-04-04T12:58:30.865Z</time>
      </trkpt>
      <trkpt lat="49.4476" lon="3.73361">
        <ele>139.38</ele>
        <time>2022-04-04T12:58:40.000Z</time>
      </trkpt>
      <trkpt lat="49.44765" lon="3.73375">
        <ele>139.77</ele>
        <time>2022-04-04T12:58:49.682Z</time>
      </trkpt>
      <trkpt lat="49.44769" lon="3.73392">
        <ele>139.95</ele>
        <time>2022-04-04T12:58:59.000Z</time>
      </trkpt>
      <trkpt lat="49.44771" lon="3.73407">
        <ele>140.07</ele>
        <time>2022-04-04T12:59:08.804Z</time>
      </trkpt>
      <trkpt lat="49.44772" lon="3.73419">
        <ele>140.28</ele>
        <time>2022-04-04T12:59:18.025Z</time>
      </trkpt>
      <trkpt lat="49.44771" lon="3.73436">
        <ele>140.7</ele>
        <time>2022-04-04T12:59:28.045Z</time>
      </trkpt>
      <trkpt lat="49.44764" lon="3.73451">
        <ele>140.77</ele>
        <time>2022-04-04T12:59:37.780Z</time>
      </trkpt>
      <trkpt lat="49.4476" lon="3.73473">
        <ele>140.95</ele>
        <time>2022-04-04T12:59:47.943Z</time>
      </trkpt>
      <trkpt lat="49.44759" lon="3.73497">
        <ele>141.88</ele>
        <time>2022-04-04T12:59:57.846Z</time>
      </trkpt>
      <trkpt lat="49.44756" lon="3.73512">
        <ele>142.77</ele>
        <time>2022-04-04T13:00:07.000Z</time>
      </trkpt>
      <trkpt lat="49.44753" lon="3.73523">
        <ele>143.52</ele>
        <time>2022-04-04T13:00:16.671Z</time>
      </trkpt>
      <trkpt lat="49.44751" lon="3.73534">
        <ele>143.9</ele>
        <time>2022-04-04T13:00:25.840Z</time>
      </trkpt>
      <trkpt lat="49.44752" lon="3.73542">
        <ele>144.18</ele>
        <time>2022-04-04T13:00:35.000Z</time>
      </trkpt>
      <trkpt lat="49.4475" lon="3.73559">
        <ele>144.4</ele>
        <time>2022-04-04T13:00:44.367Z</time>
      </trkpt>
      <trkpt lat="49.4475" lon="3.73573">
        <ele>144.85</ele>
        <time>2022-04-04T13:00:53.762Z</time>
      </trkpt>
      <trkpt lat="49.4475" lon="3.73589">
        <ele>145.44</ele>
        <time>2022-04-04T13:01:03.000Z</time>
      </trkpt>
      <trkpt lat="49.44746" lon="3.73606">
        <ele>146.4</ele>
        <time>2022-04-04T13:01:12.947Z</time>
      </trkpt>
      <trkpt lat="49.44745" lon="3.73621">
        <ele>146.82</ele>
        <time>2022-04-04T13:01:22.000Z</time>
      </trkpt>
      <trkpt lat="49.44746" lon="3.73638">
        <ele>146.65</ele>
        <time>2022-04-04T13:01:31.445Z</time>
      </trkpt>
      <trkpt lat="49.44745" lon="3.73658">
        <ele>145.74</ele>
        <time>2022-04-04T13:01:40.840Z</time>
      </trkpt>
      <trkpt lat="49.44743" lon="3.73675">
        <ele>145.49</ele>
        <time>2022-04-04T13:01:50.163Z</time>
      </trkpt>
      <trkpt lat="49.44744" lon="3.73691">
        <ele>144.69</ele>
        <time>2022-04-04T13:01:59.907Z</time>
      </trkpt>
      <trkpt lat="49.44745" lon="3.73707">
        <ele>142.56</ele>
        <time>2022-04-04T13:02:09.559Z</time>
      </trkpt>
      <trkpt lat="49.44744" lon="3.73722">
        <ele>141.93</ele>
        <time>2022-04-04T13:02:18.987Z</time>
      </trkpt>
      <trkpt lat="49.44746" lon="3.73733">
        <ele>142.6</ele>
        <time>2022-04-04T13:02:28.605Z</time>
      </trkpt>
      <trkpt lat="49.44751" lon="3.73741">
        <ele>143.82</ele>
        <time>2022-04-04T13:02:37.882Z</time>
      </trkpt>
      <trkpt lat="49.44753" lon="3.73754">
        <ele>144.91</ele>
        <time>2022-04-04T13:02:46.984Z</time>
      </trkpt>
      <trkpt lat="49.44748" lon="3.73769">
        <ele>145.03</ele>
        <time>2022-04-04T13:02:56.001Z</time>
      </trkpt>
      <trkpt lat="49.44743" lon="3.73782">
        <ele>145.19</ele>
        <time>2022-04-04T13:03:05.584Z</time>
      </trkpt>
      <trkpt lat="49.44746" lon="3.73799">
        <ele>145.64</ele>
        <time>2022-04-04T13:03:14.725Z</time>
      </trkpt>
      <trkpt lat="49.44743" lon="3.73817">
        <ele>146.23</ele>
        <time>2022-04-04T13:03:23.999Z</time>
      </trkpt>
      <trkpt lat="49.44741" lon="3.73839">
        <ele>147.31</ele>
        <time>2022-04-04T13:03:33.826Z</time>
      </trkpt>
      <trkpt lat="49.44742" lon="3.73847">
        <ele>147.25</ele>
        <time>2022-04-04T13:03:43.999Z</time>
      </trkpt>
      <trkpt lat="49.44748" lon="3.73847">
        <ele>147.28</ele>
        <time>2022-04-04T13:03:53.999Z</time>
      </trkpt>
      <trkpt lat="49.44756" lon="3.73836">
        <ele>146.36</ele>
        <time>2022-04-04T13:04:03.999Z</time>
      </trkpt>
      <trkpt lat="49.44762" lon="3.73839">
        <ele>144.93</ele>
        <time>2022-04-04T13:04:13.999Z</time>
      </trkpt>
      <trkpt lat="49.44763" lon="3.73836">
        <ele>143.91</ele>
        <time>2022-04-04T13:04:23.999Z</time>
      </trkpt>
      <trkpt lat="49.44765" lon="3.73829">
        <ele>143.69</ele>
        <time>2022-04-04T13:04:33.999Z</time>
      </trkpt>
      <trkpt lat="49.44765" lon="3.73823">
        <ele>143.64</ele>
        <time>2022-04-04T13:04:43.999Z</time>
      </trkpt>
      <trkpt lat="49.44763" lon="3.73822">
        <ele>143.58</ele>
        <time>2022-04-04T13:04:53.999Z</time>
      </trkpt>
      <trkpt lat="49.44764" lon="3.73827">
        <ele>143.64</ele>
        <time>2022-04-04T13:05:12.999Z</time>
      </trkpt>
      <trkpt lat="49.44764" lon="3.73835">
        <ele>143.36</ele>
        <time>2022-04-04T13:05:22.999Z</time>
      </trkpt>
      <trkpt lat="49.44762" lon="3.73836">
        <ele>143.15</ele>
        <time>2022-04-04T13:05:32.999Z</time>
      </trkpt>
      <trkpt lat="49.44757" lon="3.73842">
        <ele>142.94</ele>
        <time>2022-04-04T13:05:42.999Z</time>
      </trkpt>
      <trkpt lat="49.44759" lon="3.73855">
        <ele>142.8</ele>
        <time>2022-04-04T13:05:53.027Z</time>
      </trkpt>
      <trkpt lat="49.44767" lon="3.73873">
        <ele>142.79</ele>
        <time>2022-04-04T13:06:03.046Z</time>
      </trkpt>
      <trkpt lat="49.44772" lon="3.73886">
        <ele>142.63</ele>
        <time>2022-04-04T13:06:12.618Z</time>
      </trkpt>
      <trkpt lat="49.44774" lon="3.73901">
        <ele>142.82</ele>
        <time>2022-04-04T13:06:21.720Z</time>
      </trkpt>
      <trkpt lat="49.44775" lon="3.73915">
        <ele>142.92</ele>
        <time>2022-04-04T13:06:30.845Z</time>
      </trkpt>
      <trkpt lat="49.44779" lon="3.7394">
        <ele>143.04</ele>
        <time>2022-04-04T13:06:40.366Z</time>
      </trkpt>
      <trkpt lat="49.44782" lon="3.73953">
        <ele>143.16</ele>
        <time>2022-04-04T13:06:49.402Z</time>
      </trkpt>
      <trkpt lat="49.4478" lon="3.73966">
        <ele>143.13</ele>
        <time>2022-04-04T13:06:58.530Z</time>
      </trkpt>
      <trkpt lat="49.44781" lon="3.73978">
        <ele>142.73</ele>
        <time>2022-04-04T13:07:07.927Z</time>
      </trkpt>
      <trkpt lat="49.44782" lon="3.73996">
        <ele>142.48</ele>
        <time>2022-04-04T13:07:17.903Z</time>
      </trkpt>
      <trkpt lat="49.44782" lon="3.74016">
        <ele>142.13</ele>
        <time>2022-04-04T13:07:27.779Z</time>
      </trkpt>
      <trkpt lat="49.44777" lon="3.74039">
        <ele>141.62</ele>
        <time>2022-04-04T13:07:36.999Z</time>
      </trkpt>
      <trkpt lat="49.44776" lon="3.74039">
        <ele>140.67</ele>
        <time>2022-04-04T13:07:46.999Z</time>
      </trkpt>
      <trkpt lat="49.44778" lon="3.7403">
        <ele>140</ele>
        <time>2022-04-04T13:07:56.999Z</time>
      </trkpt>
      <trkpt lat="49.44779" lon="3.74026">
        <ele>139.63</ele>
        <time>2022-04-04T13:08:06.999Z</time>
      </trkpt>
      <trkpt lat="49.44778" lon="3.74026">
        <ele>139.49</ele>
        <time>2022-04-04T13:08:19.999Z</time>
      </trkpt>
      <trkpt lat="49.44777" lon="3.7403">
        <ele>136.59</ele>
        <time>2022-04-04T13:08:29.558Z</time>
      </trkpt>
      <trkpt lat="49.44778" lon="3.7404">
        <ele>134.26</ele>
        <time>2022-04-04T13:08:38.999Z</time>
      </trkpt>
      <trkpt lat="49.44797" lon="3.74046">
        <ele>133.99</ele>
        <time>2022-04-04T13:08:48.825Z</time>
      </trkpt>
      <trkpt lat="49.44805" lon="3.74056">
        <ele>134.02</ele>
        <time>2022-04-04T13:08:58.000Z</time>
      </trkpt>
      <trkpt lat="49.44814" lon="3.74061">
        <ele>134.51</ele>
        <time>2022-04-04T13:09:07.862Z</time>
      </trkpt>
      <trkpt lat="49.44825" lon="3.74068">
        <ele>135.77</ele>
        <time>2022-04-04T13:09:16.999Z</time>
      </trkpt>
      <trkpt lat="49.44833" lon="3.74072">
        <ele>137.3</ele>
        <time>2022-04-04T13:09:26.024Z</time>
      </trkpt>
      <trkpt lat="49.44845" lon="3.74084">
        <ele>138.69</ele>
        <time>2022-04-04T13:09:35.343Z</time>
      </trkpt>
      <trkpt lat="49.4486" lon="3.74094">
        <ele>140.31</ele>
        <time>2022-04-04T13:09:44.552Z</time>
      </trkpt>
      <trkpt lat="49.44872" lon="3.74103">
        <ele>142.02</ele>
        <time>2022-04-04T13:09:53.959Z</time>
      </trkpt>
      <trkpt lat="49.44881" lon="3.74113">
        <ele>143.3</ele>
        <time>2022-04-04T13:10:03.969Z</time>
      </trkpt>
      <trkpt lat="49.44889" lon="3.74119">
        <ele>144.13</ele>
        <time>2022-04-04T13:10:13.999Z</time>
      </trkpt>
      <trkpt lat="49.44894" lon="3.74123">
        <ele>145.04</ele>
        <time>2022-04-04T13:10:23.189Z</time>
      </trkpt>
      <trkpt lat="49.449" lon="3.74127">
        <ele>145.06</ele>
        <time>2022-04-04T13:10:32.221Z</time>
      </trkpt>
      <trkpt lat="49.44908" lon="3.74131">
        <ele>144.9</ele>
        <time>2022-04-04T13:10:41.765Z</time>
      </trkpt>
      <trkpt lat="49.44915" lon="3.74134">
        <ele>144.09</ele>
        <time>2022-04-04T13:10:50.999Z</time>
      </trkpt>
      <trkpt lat="49.44924" lon="3.7414">
        <ele>143.27</ele>
        <time>2022-04-04T13:11:00.999Z</time>
      </trkpt>
      <trkpt lat="49.44933" lon="3.74146">
        <ele>142.68</ele>
        <time>2022-04-04T13:11:10.690Z</time>
      </trkpt>
      <trkpt lat="49.44935" lon="3.74157">
        <ele>141.25</ele>
        <time>2022-04-04T13:11:19.999Z</time>
      </trkpt>
      <trkpt lat="49.4494" lon="3.74164">
        <ele>139.36</ele>
        <time>2022-04-04T13:11:29.999Z</time>
      </trkpt>
      <trkpt lat="49.44949" lon="3.74163">
        <ele>138.01</ele>
        <time>2022-04-04T13:11:39.020Z</time>
      </trkpt>
      <trkpt lat="49.44962" lon="3.74159">
        <ele>136.61</ele>
        <time>2022-04-04T13:11:48.768Z</time>
      </trkpt>
      <trkpt lat="49.44972" lon="3.74163">
        <ele>135.84</ele>
        <time>2022-04-04T13:11:57.999Z</time>
      </trkpt>
      <trkpt lat="49.44981" lon="3.7417">
        <ele>135.56</ele>
        <time>2022-04-04T13:12:07.508Z</time>
      </trkpt>
      <trkpt lat="49.44993" lon="3.74174">
        <ele>135.85</ele>
        <time>2022-04-04T13:12:16.940Z</time>
      </trkpt>
      <trkpt lat="49.45002" lon="3.74176">
        <ele>135.93</ele>
        <time>2022-04-04T13:12:25.999Z</time>
      </trkpt>
      <trkpt lat="49.45015" lon="3.74181">
        <ele>135.97</ele>
        <time>2022-04-04T13:12:35.367Z</time>
      </trkpt>
      <trkpt lat="49.45024" lon="3.7419">
        <ele>135.79</ele>
        <time>2022-04-04T13:12:44.999Z</time>
      </trkpt>
      <trkpt lat="49.45032" lon="3.74196">
        <ele>135.19</ele>
        <time>2022-04-04T13:12:54.922Z</time>
      </trkpt>
      <trkpt lat="49.45038" lon="3.74204">
        <ele>134.9</ele>
        <time>2022-04-04T13:13:04.385Z</time>
      </trkpt>
      <trkpt lat="49.45046" lon="3.7421">
        <ele>134.87</ele>
        <time>2022-04-04T13:13:13.999Z</time>
      </trkpt>
      <trkpt lat="49.45057" lon="3.74218">
        <ele>133.64</ele>
        <time>2022-04-04T13:13:23.999Z</time>
      </trkpt>
      <trkpt lat="49.45065" lon="3.74225">
        <ele>132.13</ele>
        <time>2022-04-04T13:13:33.999Z</time>
      </trkpt>
      <trkpt lat="49.45071" lon="3.74227">
        <ele>129.99</ele>
        <time>2022-04-04T13:13:43.569Z</time>
      </trkpt>
      <trkpt lat="49.45077" lon="3.74232">
        <ele>127.94</ele>
        <time>2022-04-04T13:13:52.721Z</time>
      </trkpt>
      <trkpt lat="49.45076" lon="3.7423">
        <ele>125.57</ele>
        <time>2022-04-04T13:14:01.746Z</time>
      </trkpt>
      <trkpt lat="49.45073" lon="3.74243">
        <ele>122.76</ele>
        <time>2022-04-04T13:14:11.145Z</time>
      </trkpt>
      <trkpt lat="49.45073" lon="3.74274">
        <ele>120.44</ele>
        <time>2022-04-04T13:14:20.947Z</time>
      </trkpt>
      <trkpt lat="49.45076" lon="3.74299">
        <ele>118.29</ele>
        <time>2022-04-04T13:14:29.999Z</time>
      </trkpt>
      <trkpt lat="49.45081" lon="3.74312">
        <ele>116.96</ele>
        <time>2022-04-04T13:14:39.842Z</time>
      </trkpt>
      <trkpt lat="49.45093" lon="3.74316">
        <ele>115.42</ele>
        <time>2022-04-04T13:14:48.999Z</time>
      </trkpt>
      <trkpt lat="49.45104" lon="3.74322">
        <ele>113.47</ele>
        <time>2022-04-04T13:14:58.482Z</time>
      </trkpt>
      <trkpt lat="49.4511" lon="3.74332">
        <ele>111.26</ele>
        <time>2022-04-04T13:15:07.999Z</time>
      </trkpt>
      <trkpt lat="49.45111" lon="3.74346">
        <ele>109.73</ele>
        <time>2022-04-04T13:15:17.028Z</time>
      </trkpt>
      <trkpt lat="49.45108" lon="3.74363">
        <ele>108.29</ele>
        <time>2022-04-04T13:15:26.921Z</time>
      </trkpt>
      <trkpt lat="49.45106" lon="3.74376">
        <ele>108.01</ele>
        <time>2022-04-04T13:15:35.999Z</time>
      </trkpt>
      <trkpt lat="49.45106" lon="3.74374">
        <ele>108.4</ele>
        <time>2022-04-04T13:15:45.999Z</time>
      </trkpt>
      <trkpt lat="49.45104" lon="3.74368">
        <ele>108.71</ele>
        <time>2022-04-04T13:15:55.999Z</time>
      </trkpt>
      <trkpt lat="49.45102" lon="3.74369">
        <ele>109.09</ele>
        <time>2022-04-04T13:16:06.999Z</time>
      </trkpt>
      <trkpt lat="49.45102" lon="3.74371">
        <ele>109.23</ele>
        <time>2022-04-04T13:16:46.905Z</time>
      </trkpt>
      <trkpt lat="49.45097" lon="3.7438">
        <ele>108.06</ele>
        <time>2022-04-04T13:16:55.999Z</time>
      </trkpt>
      <trkpt lat="49.45107" lon="3.74386">
        <ele>107.26</ele>
        <time>2022-04-04T13:17:05.980Z</time>
      </trkpt>
      <trkpt lat="49.45112" lon="3.74397">
        <ele>107.11</ele>
        <time>2022-04-04T13:17:14.986Z</time>
      </trkpt>
      <trkpt lat="49.45119" lon="3.74411">
        <ele>107.26</ele>
        <time>2022-04-04T13:17:24.999Z</time>
      </trkpt>
      <trkpt lat="49.45124" lon="3.74427">
        <ele>107.18</ele>
        <time>2022-04-04T13:17:34.999Z</time>
      </trkpt>
      <trkpt lat="49.45125" lon="3.74449">
        <ele>106.77</ele>
        <time>2022-04-04T13:17:44.706Z</time>
      </trkpt>
      <trkpt lat="49.45132" lon="3.74454">
        <ele>105.98</ele>
        <time>2022-04-04T13:17:53.758Z</time>
      </trkpt>
      <trkpt lat="49.45141" lon="3.74451">
        <ele>104.75</ele>
        <time>2022-04-04T13:18:03.698Z</time>
      </trkpt>
      <trkpt lat="49.45138" lon="3.74459">
        <ele>103.25</ele>
        <time>2022-04-04T13:18:12.999Z</time>
      </trkpt>
      <trkpt lat="49.45135" lon="3.74475">
        <ele>102.47</ele>
        <time>2022-04-04T13:18:23.163Z</time>
      </trkpt>
      <trkpt lat="49.45133" lon="3.74498">
        <ele>101.91</ele>
        <time>2022-04-04T13:18:32.557Z</time>
      </trkpt>
      <trkpt lat="49.45133" lon="3.74515">
        <ele>101.39</ele>
        <time>2022-04-04T13:18:41.999Z</time>
      </trkpt>
      <trkpt lat="49.45138" lon="3.74528">
        <ele>100.73</ele>
        <time>2022-04-04T13:18:51.999Z</time>
      </trkpt>
      <trkpt lat="49.45141" lon="3.74543">
        <ele>100.42</ele>
        <time>2022-04-04T13:19:01.239Z</time>
      </trkpt>
      <trkpt lat="49.45137" lon="3.74558">
        <ele>100.37</ele>
        <time>2022-04-04T13:19:10.363Z</time>
      </trkpt>
      <trkpt lat="49.45129" lon="3.74574">
        <ele>101.05</ele>
        <time>2022-04-04T13:19:19.766Z</time>
      </trkpt>
      <trkpt lat="49.45123" lon="3.74588">
        <ele>101.41</ele>
        <time>2022-04-04T13:19:29.103Z</time>
      </trkpt>
      <trkpt lat="49.45117" lon="3.74602">
        <ele>101.78</ele>
        <time>2022-04-04T13:19:38.999Z</time>
      </trkpt>
      <trkpt lat="49.4511" lon="3.74612">
        <ele>102.45</ele>
        <time>2022-04-04T13:19:48.999Z</time>
      </trkpt>
      <trkpt lat="49.45106" lon="3.74626">
        <ele>102.94</ele>
        <time>2022-04-04T13:19:58.999Z</time>
      </trkpt>
      <trkpt lat="49.45104" lon="3.74642">
        <ele>103.99</ele>
        <time>2022-04-04T13:20:08.640Z</time>
      </trkpt>
      <trkpt lat="49.45102" lon="3.74654">
        <ele>104.51</ele>
        <time>2022-04-04T13:20:17.999Z</time>
      </trkpt>
      <trkpt lat="49.45099" lon="3.74671">
        <ele>105.08</ele>
        <time>2022-04-04T13:20:28.098Z</time>
      </trkpt>
      <trkpt lat="49.45093" lon="3.74684">
        <ele>105.21</ele>
        <time>2022-04-04T13:20:38.999Z</time>
      </trkpt>
      <trkpt lat="49.45089" lon="3.74698">
        <ele>105.18</ele>
        <time>2022-04-04T13:20:48.999Z</time>
      </trkpt>
      <trkpt lat="49.45088" lon="3.74717">
        <ele>106.18</ele>
        <time>2022-04-04T13:20:58.999Z</time>
      </trkpt>
      <trkpt lat="49.45084" lon="3.74733">
        <ele>107.43</ele>
        <time>2022-04-04T13:21:08.382Z</time>
      </trkpt>
      <trkpt lat="49.45082" lon="3.74748">
        <ele>108.8</ele>
        <time>2022-04-04T13:21:18.286Z</time>
      </trkpt>
      <trkpt lat="49.45079" lon="3.7476">
        <ele>109.05</ele>
        <time>2022-04-04T13:21:27.999Z</time>
      </trkpt>
      <trkpt lat="49.45081" lon="3.74776">
        <ele>109.29</ele>
        <time>2022-04-04T13:21:37.323Z</time>
      </trkpt>
      <trkpt lat="49.45084" lon="3.74791">
        <ele>109.43</ele>
        <time>2022-04-04T13:21:46.999Z</time>
      </trkpt>
      <trkpt lat="49.45101" lon="3.74802">
        <ele>110.41</ele>
        <time>2022-04-04T13:21:56.999Z</time>
      </trkpt>
      <trkpt lat="49.45111" lon="3.74815">
        <ele>111.64</ele>
        <time>2022-04-04T13:22:06.365Z</time>
      </trkpt>
      <trkpt lat="49.45112" lon="3.74816">
        <ele>96.86</ele>
        <time>2022-04-04T13:22:16.037Z</time>
      </trkpt>
      <trkpt lat="49.45114" lon="3.74829">
        <ele>91.66</ele>
        <time>2022-04-04T13:22:25.999Z</time>
      </trkpt>
      <trkpt lat="49.45121" lon="3.74849">
        <ele>91.66</ele>
        <time>2022-04-04T13:22:36.999Z</time>
      </trkpt>
      <trkpt lat="49.45134" lon="3.74857">
        <ele>91.66</ele>
        <time>2022-04-04T13:22:46.999Z</time>
      </trkpt>
      <trkpt lat="49.45136" lon="3.74825">
        <ele>91.66</ele>
        <time>2022-04-04T13:22:56.440Z</time>
      </trkpt>
      <trkpt lat="49.45137" lon="3.74804">
        <ele>91.66</ele>
        <time>2022-04-04T13:23:06.999Z</time>
      </trkpt>
      <trkpt lat="49.45143" lon="3.74791">
        <ele>91.66</ele>
        <time>2022-04-04T13:23:16.999Z</time>
      </trkpt>
      <trkpt lat="49.45155" lon="3.74785">
        <ele>91.66</ele>
        <time>2022-04-04T13:23:26.036Z</time>
      </trkpt>
      <trkpt lat="49.45166" lon="3.74781">
        <ele>91.66</ele>
        <time>2022-04-04T13:23:35.504Z</time>
      </trkpt>
      <trkpt lat="49.45176" lon="3.74775">
        <ele>91.66</ele>
        <time>2022-04-04T13:23:44.538Z</time>
      </trkpt>
      <trkpt lat="49.45191" lon="3.74774">
        <ele>91.66</ele>
        <time>2022-04-04T13:23:53.559Z</time>
      </trkpt>
      <trkpt lat="49.45205" lon="3.74776">
        <ele>91.66</ele>
        <time>2022-04-04T13:24:03.216Z</time>
      </trkpt>
      <trkpt lat="49.45218" lon="3.74772">
        <ele>91.66</ele>
        <time>2022-04-04T13:24:12.702Z</time>
      </trkpt>
      <trkpt lat="49.45229" lon="3.74773">
        <ele>91.66</ele>
        <time>2022-04-04T13:24:21.724Z</time>
      </trkpt>
      <trkpt lat="49.45239" lon="3.74772">
        <ele>91.66</ele>
        <time>2022-04-04T13:24:31.037Z</time>
      </trkpt>
      <trkpt lat="49.45236" lon="3.74756">
        <ele>91.66</ele>
        <time>2022-04-04T13:24:40.281Z</time>
      </trkpt>
      <trkpt lat="49.4523" lon="3.74745">
        <ele>91.66</ele>
        <time>2022-04-04T13:24:49.294Z</time>
      </trkpt>
      <trkpt lat="49.45227" lon="3.7473">
        <ele>91.66</ele>
        <time>2022-04-04T13:24:58.999Z</time>
      </trkpt>
      <trkpt lat="49.45226" lon="3.74729">
        <ele>91.66</ele>
        <time>2022-04-04T13:25:08.999Z</time>
      </trkpt>
      <trkpt lat="49.4523" lon="3.74722">
        <ele>91.66</ele>
        <time>2022-04-04T13:25:18.804Z</time>
      </trkpt>
      <trkpt lat="49.45235" lon="3.74711">
        <ele>91.66</ele>
        <time>2022-04-04T13:25:27.999Z</time>
      </trkpt>
      <trkpt lat="49.45232" lon="3.74703">
        <ele>91.66</ele>
        <time>2022-04-04T13:25:37.999Z</time>
      </trkpt>
      <trkpt lat="49.45229" lon="3.74705">
        <ele>91.66</ele>
        <time>2022-04-04T13:25:48.999Z</time>
      </trkpt>
      <trkpt lat="49.45229" lon="3.74707">
        <ele>91.66</ele>
        <time>2022-04-04T13:25:58.999Z</time>
      </trkpt>
      <trkpt lat="49.45227" lon="3.74704">
        <ele>91.66</ele>
        <time>2022-04-04T13:26:09.999Z</time>
      </trkpt>
      <trkpt lat="49.45223" lon="3.747">
        <ele>91.66</ele>
        <time>2022-04-04T13:26:19.999Z</time>
      </trkpt>
      <trkpt lat="49.45216" lon="3.74697">
        <ele>91.66</ele>
        <time>2022-04-04T13:26:29.999Z</time>
      </trkpt>
      <trkpt lat="49.45216" lon="3.74698">
        <ele>91.66</ele>
        <time>2022-04-04T13:26:39.999Z</time>
      </trkpt>
      <trkpt lat="49.45215" lon="3.74698">
        <ele>91.66</ele>
        <time>2022-04-04T13:26:49.999Z</time>
      </trkpt>
      <trkpt lat="49.45216" lon="3.74697">
        <ele>91.66</ele>
        <time>2022-04-04T13:26:59.999Z</time>
      </trkpt>
      <trkpt lat="49.45215" lon="3.74696">
        <ele>91.66</ele>
        <time>2022-04-04T13:27:14.999Z</time>
      </trkpt>
      <trkpt lat="49.45212" lon="3.74691">
        <ele>91.66</ele>
        <time>2022-04-04T13:27:24.999Z</time>
      </trkpt>
      <trkpt lat="49.45211" lon="3.7469">
        <ele>91.66</ele>
        <time>2022-04-04T13:27:34.999Z</time>
      </trkpt>
      <trkpt lat="49.45211" lon="3.74691">
        <ele>91.66</ele>
        <time>2022-04-04T13:27:44.999Z</time>
      </trkpt>
      <trkpt lat="49.4521" lon="3.74692">
        <ele>91.66</ele>
        <time>2022-04-04T13:28:21.999Z</time>
      </trkpt>
      <trkpt lat="49.45208" lon="3.74685">
        <ele>91.66</ele>
        <time>2022-04-04T13:28:31.999Z</time>
      </trkpt>
      <trkpt lat="49.45205" lon="3.74686">
        <ele>91.66</ele>
        <time>2022-04-04T13:28:41.999Z</time>
      </trkpt>
      <trkpt lat="49.45204" lon="3.74686">
        <ele>91.66</ele>
        <time>2022-04-04T13:28:51.999Z</time>
      </trkpt>
      <trkpt lat="49.45208" lon="3.74691">
        <ele>91.66</ele>
        <time>2022-04-04T13:29:01.999Z</time>
      </trkpt>
      <trkpt lat="49.45209" lon="3.7469">
        <ele>91.66</ele>
        <time>2022-04-04T13:29:29.999Z</time>
      </trkpt>
      <trkpt lat="49.4521" lon="3.74684">
        <ele>91.66</ele>
        <time>2022-04-04T13:29:39.999Z</time>
      </trkpt>
      <trkpt lat="49.45207" lon="3.74685">
        <ele>91.66</ele>
        <time>2022-04-04T13:29:49.999Z</time>
      </trkpt>
      <trkpt lat="49.45206" lon="3.74683">
        <ele>91.66</ele>
        <time>2022-04-04T13:29:59.999Z</time>
      </trkpt>
      <trkpt lat="49.45207" lon="3.74684">
        <ele>91.66</ele>
        <time>2022-04-04T13:30:09.999Z</time>
      </trkpt>
      <trkpt lat="49.4521" lon="3.74685">
        <ele>91.66</ele>
        <time>2022-04-04T13:30:19.999Z</time>
      </trkpt>
      <trkpt lat="49.4521" lon="3.74688">
        <ele>91.66</ele>
        <time>2022-04-04T13:30:29.999Z</time>
      </trkpt>
      <trkpt lat="49.45211" lon="3.74694">
        <ele>91.66</ele>
        <time>2022-04-04T13:30:39.280Z</time>
      </trkpt>
      <trkpt lat="49.45213" lon="3.74694">
        <ele>91.66</ele>
        <time>2022-04-04T13:30:48.999Z</time>
      </trkpt>
      <trkpt lat="49.45218" lon="3.74697">
        <ele>91.66</ele>
        <time>2022-04-04T13:30:58.999Z</time>
      </trkpt>
      <trkpt lat="49.45225" lon="3.74701">
        <ele>91.66</ele>
        <time>2022-04-04T13:31:08.999Z</time>
      </trkpt>
      <trkpt lat="49.45224" lon="3.74703">
        <ele>91.66</ele>
        <time>2022-04-04T13:31:18.999Z</time>
      </trkpt>
      <trkpt lat="49.45223" lon="3.74703">
        <ele>91.66</ele>
        <time>2022-04-04T13:31:28.999Z</time>
      </trkpt>
      <trkpt lat="49.45224" lon="3.74704">
        <ele>91.66</ele>
        <time>2022-04-04T13:31:54.999Z</time>
      </trkpt>
      <trkpt lat="49.45227" lon="3.74706">
        <ele>91.66</ele>
        <time>2022-04-04T13:32:04.999Z</time>
      </trkpt>
      <trkpt lat="49.45229" lon="3.74708">
        <ele>91.66</ele>
        <time>2022-04-04T13:32:14.141Z</time>
      </trkpt>
      <trkpt lat="49.45236" lon="3.74709">
        <ele>91.66</ele>
        <time>2022-04-04T13:32:23.686Z</time>
      </trkpt>
      <trkpt lat="49.45243" lon="3.74712">
        <ele>91.66</ele>
        <time>2022-04-04T13:32:32.740Z</time>
      </trkpt>
      <trkpt lat="49.45255" lon="3.74716">
        <ele>91.66</ele>
        <time>2022-04-04T13:32:42.203Z</time>
      </trkpt>
      <trkpt lat="49.45268" lon="3.74723">
        <ele>91.66</ele>
        <time>2022-04-04T13:32:52.056Z</time>
      </trkpt>
      <trkpt lat="49.45275" lon="3.74731">
        <ele>91.66</ele>
        <time>2022-04-04T13:33:01.999Z</time>
      </trkpt>
      <trkpt lat="49.45285" lon="3.74737">
        <ele>91.66</ele>
        <time>2022-04-04T13:33:11.200Z</time>
      </trkpt>
      <trkpt lat="49.45295" lon="3.7474">
        <ele>91.66</ele>
        <time>2022-04-04T13:33:20.676Z</time>
      </trkpt>
      <trkpt lat="49.45307" lon="3.74738">
        <ele>91.66</ele>
        <time>2022-04-04T13:33:29.999Z</time>
      </trkpt>
      <trkpt lat="49.45316" lon="3.74717">
        <ele>91.66</ele>
        <time>2022-04-04T13:33:39.999Z</time>
      </trkpt>
      <trkpt lat="49.45319" lon="3.74689">
        <ele>91.66</ele>
        <time>2022-04-04T13:33:49.205Z</time>
      </trkpt>
      <trkpt lat="49.45323" lon="3.74671">
        <ele>91.66</ele>
        <time>2022-04-04T13:33:58.617Z</time>
      </trkpt>
      <trkpt lat="49.45329" lon="3.74654">
        <ele>91.66</ele>
        <time>2022-04-04T13:34:07.999Z</time>
      </trkpt>
      <trkpt lat="49.45332" lon="3.74636">
        <ele>91.66</ele>
        <time>2022-04-04T13:34:17.058Z</time>
      </trkpt>
      <trkpt lat="49.45331" lon="3.7462">
        <ele>91.66</ele>
        <time>2022-04-04T13:34:26.260Z</time>
      </trkpt>
      <trkpt lat="49.45335" lon="3.74605">
        <ele>91.66</ele>
        <time>2022-04-04T13:34:35.287Z</time>
      </trkpt>
      <trkpt lat="49.45338" lon="3.74587">
        <ele>91.66</ele>
        <time>2022-04-04T13:34:44.359Z</time>
      </trkpt>
      <trkpt lat="49.4534" lon="3.74564">
        <ele>91.66</ele>
        <time>2022-04-04T13:34:53.742Z</time>
      </trkpt>
      <trkpt lat="49.4534" lon="3.74548">
        <ele>91.66</ele>
        <time>2022-04-04T13:35:03.044Z</time>
      </trkpt>
      <trkpt lat="49.45336" lon="3.74528">
        <ele>100.29</ele>
        <time>2022-04-04T13:35:12.200Z</time>
      </trkpt>
      <trkpt lat="49.45325" lon="3.74516">
        <ele>100.24</ele>
        <time>2022-04-04T13:35:22.025Z</time>
      </trkpt>
      <trkpt lat="49.45316" lon="3.745">
        <ele>99.29</ele>
        <time>2022-04-04T13:35:31.999Z</time>
      </trkpt>
      <trkpt lat="49.4532" lon="3.74478">
        <ele>98.6</ele>
        <time>2022-04-04T13:35:41.999Z</time>
      </trkpt>
      <trkpt lat="49.4532" lon="3.74452">
        <ele>98.45</ele>
        <time>2022-04-04T13:35:51.999Z</time>
      </trkpt>
      <trkpt lat="49.45323" lon="3.74433">
        <ele>99.27</ele>
        <time>2022-04-04T13:36:01.241Z</time>
      </trkpt>
      <trkpt lat="49.45327" lon="3.74417">
        <ele>99.47</ele>
        <time>2022-04-04T13:36:10.999Z</time>
      </trkpt>
      <trkpt lat="49.45331" lon="3.74398">
        <ele>98.23</ele>
        <time>2022-04-04T13:36:20.999Z</time>
      </trkpt>
      <trkpt lat="49.45336" lon="3.7438">
        <ele>97.4</ele>
        <time>2022-04-04T13:36:30.287Z</time>
      </trkpt>
      <trkpt lat="49.45338" lon="3.74365">
        <ele>97.07</ele>
        <time>2022-04-04T13:36:39.759Z</time>
      </trkpt>
      <trkpt lat="49.4534" lon="3.74354">
        <ele>96.81</ele>
        <time>2022-04-04T13:36:49.002Z</time>
      </trkpt>
      <trkpt lat="49.45333" lon="3.74351">
        <ele>95.88</ele>
        <time>2022-04-04T13:36:58.999Z</time>
      </trkpt>
      <trkpt lat="49.45335" lon="3.74338">
        <ele>95.08</ele>
        <time>2022-04-04T13:37:08.339Z</time>
      </trkpt>
      <trkpt lat="49.45337" lon="3.74324">
        <ele>95.45</ele>
        <time>2022-04-04T13:37:17.483Z</time>
      </trkpt>
      <trkpt lat="49.45342" lon="3.74307">
        <ele>95.52</ele>
        <time>2022-04-04T13:37:26.705Z</time>
      </trkpt>
      <trkpt lat="49.45344" lon="3.7429">
        <ele>95.46</ele>
        <time>2022-04-04T13:37:35.904Z</time>
      </trkpt>
      <trkpt lat="49.45347" lon="3.7427">
        <ele>94.91</ele>
        <time>2022-04-04T13:37:45.184Z</time>
      </trkpt>
      <trkpt lat="49.45353" lon="3.74249">
        <ele>95.47</ele>
        <time>2022-04-04T13:37:55.179Z</time>
      </trkpt>
      <trkpt lat="49.45357" lon="3.74231">
        <ele>96.77</ele>
        <time>2022-04-04T13:38:04.999Z</time>
      </trkpt>
      <trkpt lat="49.45364" lon="3.74217">
        <ele>98.54</ele>
        <time>2022-04-04T13:38:14.723Z</time>
      </trkpt>
      <trkpt lat="49.45371" lon="3.74207">
        <ele>100.43</ele>
        <time>2022-04-04T13:38:23.938Z</time>
      </trkpt>
      <trkpt lat="49.45379" lon="3.742">
        <ele>101.8</ele>
        <time>2022-04-04T13:38:32.999Z</time>
      </trkpt>
      <trkpt lat="49.45385" lon="3.74188">
        <ele>102.79</ele>
        <time>2022-04-04T13:38:42.765Z</time>
      </trkpt>
      <trkpt lat="49.45389" lon="3.74179">
        <ele>103.82</ele>
        <time>2022-04-04T13:38:51.945Z</time>
      </trkpt>
      <trkpt lat="49.45392" lon="3.74165">
        <ele>104.84</ele>
        <time>2022-04-04T13:39:01.321Z</time>
      </trkpt>
      <trkpt lat="49.45399" lon="3.74153">
        <ele>106.27</ele>
        <time>2022-04-04T13:39:10.999Z</time>
      </trkpt>
      <trkpt lat="49.45395" lon="3.74129">
        <ele>106.86</ele>
        <time>2022-04-04T13:39:20.741Z</time>
      </trkpt>
      <trkpt lat="49.45391" lon="3.7411">
        <ele>106.89</ele>
        <time>2022-04-04T13:39:29.780Z</time>
      </trkpt>
      <trkpt lat="49.45388" lon="3.74091">
        <ele>106.06</ele>
        <time>2022-04-04T13:39:39.418Z</time>
      </trkpt>
      <trkpt lat="49.45385" lon="3.74079">
        <ele>104.95</ele>
        <time>2022-04-04T13:39:48.459Z</time>
      </trkpt>
      <trkpt lat="49.45386" lon="3.74066">
        <ele>104.27</ele>
        <time>2022-04-04T13:39:57.500Z</time>
      </trkpt>
      <trkpt lat="49.4539" lon="3.74052">
        <ele>103.74</ele>
        <time>2022-04-04T13:40:06.953Z</time>
      </trkpt>
      <trkpt lat="49.45392" lon="3.74039">
        <ele>104.26</ele>
        <time>2022-04-04T13:40:16.541Z</time>
      </trkpt>
      <trkpt lat="49.4539" lon="3.74025">
        <ele>104.61</ele>
        <time>2022-04-04T13:40:25.641Z</time>
      </trkpt>
      <trkpt lat="49.45387" lon="3.74024">
        <ele>105.01</ele>
        <time>2022-04-04T13:40:34.796Z</time>
      </trkpt>
      <trkpt lat="49.45385" lon="3.74014">
        <ele>106.04</ele>
        <time>2022-04-04T13:40:43.999Z</time>
      </trkpt>
      <trkpt lat="49.45386" lon="3.73992">
        <ele>107.07</ele>
        <time>2022-04-04T13:40:53.498Z</time>
      </trkpt>
      <trkpt lat="49.45388" lon="3.73974">
        <ele>107.97</ele>
        <time>2022-04-04T13:41:02.780Z</time>
      </trkpt>
      <trkpt lat="49.45387" lon="3.73962">
        <ele>108.48</ele>
        <time>2022-04-04T13:41:11.999Z</time>
      </trkpt>
      <trkpt lat="49.45394" lon="3.7394">
        <ele>109.04</ele>
        <time>2022-04-04T13:41:21.301Z</time>
      </trkpt>
      <trkpt lat="49.45399" lon="3.73918">
        <ele>109.45</ele>
        <time>2022-04-04T13:41:30.817Z</time>
      </trkpt>
      <trkpt lat="49.45396" lon="3.73905">
        <ele>109.64</ele>
        <time>2022-04-04T13:41:39.999Z</time>
      </trkpt>
      <trkpt lat="49.45396" lon="3.73899">
        <ele>109.49</ele>
        <time>2022-04-04T13:41:49.321Z</time>
      </trkpt>
      <trkpt lat="49.45399" lon="3.73887">
        <ele>109.37</ele>
        <time>2022-04-04T13:41:58.672Z</time>
      </trkpt>
      <trkpt lat="49.45403" lon="3.7387">
        <ele>109.07</ele>
        <time>2022-04-04T13:42:07.796Z</time>
      </trkpt>
      <trkpt lat="49.45406" lon="3.73846">
        <ele>108.7</ele>
        <time>2022-04-04T13:42:17.196Z</time>
      </trkpt>
      <trkpt lat="49.45411" lon="3.73823">
        <ele>108.81</ele>
        <time>2022-04-04T13:42:26.560Z</time>
      </trkpt>
      <trkpt lat="49.45418" lon="3.73807">
        <ele>108.81</ele>
        <time>2022-04-04T13:42:35.839Z</time>
      </trkpt>
      <trkpt lat="49.45424" lon="3.73796">
        <ele>109.56</ele>
        <time>2022-04-04T13:42:45.081Z</time>
      </trkpt>
      <trkpt lat="49.45428" lon="3.7378">
        <ele>110.67</ele>
        <time>2022-04-04T13:42:54.432Z</time>
      </trkpt>
      <trkpt lat="49.45431" lon="3.73763">
        <ele>112.13</ele>
        <time>2022-04-04T13:43:03.782Z</time>
      </trkpt>
      <trkpt lat="49.45432" lon="3.73747">
        <ele>113.4</ele>
        <time>2022-04-04T13:43:13.260Z</time>
      </trkpt>
      <trkpt lat="49.45433" lon="3.73726">
        <ele>114.38</ele>
        <time>2022-04-04T13:43:22.858Z</time>
      </trkpt>
      <trkpt lat="49.45434" lon="3.73712">
        <ele>114.7</ele>
        <time>2022-04-04T13:43:31.999Z</time>
      </trkpt>
      <trkpt lat="49.45435" lon="3.73696">
        <ele>115.33</ele>
        <time>2022-04-04T13:43:41.177Z</time>
      </trkpt>
      <trkpt lat="49.45436" lon="3.7368">
        <ele>115.65</ele>
        <time>2022-04-04T13:43:50.737Z</time>
      </trkpt>
      <trkpt lat="49.45436" lon="3.73666">
        <ele>114.62</ele>
        <time>2022-04-04T13:43:59.999Z</time>
      </trkpt>
      <trkpt lat="49.45433" lon="3.7365">
        <ele>112.18</ele>
        <time>2022-04-04T13:44:09.817Z</time>
      </trkpt>
      <trkpt lat="49.45436" lon="3.73636">
        <ele>108.89</ele>
        <time>2022-04-04T13:44:18.999Z</time>
      </trkpt>
      <trkpt lat="49.45443" lon="3.73616">
        <ele>106.58</ele>
        <time>2022-04-04T13:44:28.999Z</time>
      </trkpt>
      <trkpt lat="49.45442" lon="3.73598">
        <ele>106.27</ele>
        <time>2022-04-04T13:44:38.140Z</time>
      </trkpt>
      <trkpt lat="49.45447" lon="3.73586">
        <ele>105.53</ele>
        <time>2022-04-04T13:44:47.412Z</time>
      </trkpt>
      <trkpt lat="49.4545" lon="3.73573">
        <ele>104.5</ele>
        <time>2022-04-04T13:44:56.636Z</time>
      </trkpt>
      <trkpt lat="49.45456" lon="3.73561">
        <ele>103.42</ele>
        <time>2022-04-04T13:45:06.080Z</time>
      </trkpt>
      <trkpt lat="49.45455" lon="3.73544">
        <ele>103.48</ele>
        <time>2022-04-04T13:45:15.396Z</time>
      </trkpt>
      <trkpt lat="49.45456" lon="3.73523">
        <ele>103.24</ele>
        <time>2022-04-04T13:45:24.820Z</time>
      </trkpt>
      <trkpt lat="49.45458" lon="3.73509">
        <ele>102</ele>
        <time>2022-04-04T13:45:33.999Z</time>
      </trkpt>
      <trkpt lat="49.45461" lon="3.73492">
        <ele>101.28</ele>
        <time>2022-04-04T13:45:43.541Z</time>
      </trkpt>
      <trkpt lat="49.45466" lon="3.73476">
        <ele>101.03</ele>
        <time>2022-04-04T13:45:52.752Z</time>
      </trkpt>
      <trkpt lat="49.4547" lon="3.73463">
        <ele>100.33</ele>
        <time>2022-04-04T13:46:01.816Z</time>
      </trkpt>
      <trkpt lat="49.45475" lon="3.73446">
        <ele>99.29</ele>
        <time>2022-04-04T13:46:11.272Z</time>
      </trkpt>
      <trkpt lat="49.45482" lon="3.73434">
        <ele>98.04</ele>
        <time>2022-04-04T13:46:20.736Z</time>
      </trkpt>
      <trkpt lat="49.45486" lon="3.73422">
        <ele>96.29</ele>
        <time>2022-04-04T13:46:29.999Z</time>
      </trkpt>
      <trkpt lat="49.45487" lon="3.73403">
        <ele>95.76</ele>
        <time>2022-04-04T13:46:39.259Z</time>
      </trkpt>
      <trkpt lat="49.4549" lon="3.73383">
        <ele>95.11</ele>
        <time>2022-04-04T13:46:48.719Z</time>
      </trkpt>
      <trkpt lat="49.45495" lon="3.73368">
        <ele>93.87</ele>
        <time>2022-04-04T13:46:58.096Z</time>
      </trkpt>
      <trkpt lat="49.45501" lon="3.73356">
        <ele>92.56</ele>
        <time>2022-04-04T13:47:07.115Z</time>
      </trkpt>
      <trkpt lat="49.45503" lon="3.7334">
        <ele>91.9</ele>
        <time>2022-04-04T13:47:16.660Z</time>
      </trkpt>
      <trkpt lat="49.45503" lon="3.73318">
        <ele>91.76</ele>
        <time>2022-04-04T13:47:25.678Z</time>
      </trkpt>
      <trkpt lat="49.45504" lon="3.73295">
        <ele>92.33</ele>
        <time>2022-04-04T13:47:35.214Z</time>
      </trkpt>
      <trkpt lat="49.45504" lon="3.73274">
        <ele>92.65</ele>
        <time>2022-04-04T13:47:44.219Z</time>
      </trkpt>
      <trkpt lat="49.45506" lon="3.73255">
        <ele>92.26</ele>
        <time>2022-04-04T13:47:53.541Z</time>
      </trkpt>
      <trkpt lat="49.45504" lon="3.73237">
        <ele>91.72</ele>
        <time>2022-04-04T13:48:02.575Z</time>
      </trkpt>
      <trkpt lat="49.45508" lon="3.73218">
        <ele>92.54</ele>
        <time>2022-04-04T13:48:11.699Z</time>
      </trkpt>
      <trkpt lat="49.45512" lon="3.73201">
        <ele>93.47</ele>
        <time>2022-04-04T13:48:20.999Z</time>
      </trkpt>
      <trkpt lat="49.45515" lon="3.7319">
        <ele>92.98</ele>
        <time>2022-04-04T13:48:30.172Z</time>
      </trkpt>
      <trkpt lat="49.45517" lon="3.73177">
        <ele>92.17</ele>
        <time>2022-04-04T13:48:39.520Z</time>
      </trkpt>
      <trkpt lat="49.45522" lon="3.73166">
        <ele>90.47</ele>
        <time>2022-04-04T13:48:48.999Z</time>
      </trkpt>
      <trkpt lat="49.45526" lon="3.73157">
        <ele>88.6</ele>
        <time>2022-04-04T13:48:58.317Z</time>
      </trkpt>
      <trkpt lat="49.45528" lon="3.73142">
        <ele>87.33</ele>
        <time>2022-04-04T13:49:07.751Z</time>
      </trkpt>
      <trkpt lat="49.4553" lon="3.73128">
        <ele>86.53</ele>
        <time>2022-04-04T13:49:16.999Z</time>
      </trkpt>
      <trkpt lat="49.45536" lon="3.73111">
        <ele>89.09</ele>
        <time>2022-04-04T13:49:26.121Z</time>
      </trkpt>
      <trkpt lat="49.45535" lon="3.73075">
        <ele>91.56</ele>
        <time>2022-04-04T13:49:35.195Z</time>
      </trkpt>
      <trkpt lat="49.45537" lon="3.73051">
        <ele>92.74</ele>
        <time>2022-04-04T13:49:44.999Z</time>
      </trkpt>
      <trkpt lat="49.45535" lon="3.73047">
        <ele>93.54</ele>
        <time>2022-04-04T13:49:54.097Z</time>
      </trkpt>
      <trkpt lat="49.45535" lon="3.73032">
        <ele>94.81</ele>
        <time>2022-04-04T13:50:03.793Z</time>
      </trkpt>
      <trkpt lat="49.45533" lon="3.73016">
        <ele>95.18</ele>
        <time>2022-04-04T13:50:13.999Z</time>
      </trkpt>
      <trkpt lat="49.4554" lon="3.73006">
        <ele>95.61</ele>
        <time>2022-04-04T13:50:23.339Z</time>
      </trkpt>
      <trkpt lat="49.45548" lon="3.72992">
        <ele>96.92</ele>
        <time>2022-04-04T13:50:32.393Z</time>
      </trkpt>
      <trkpt lat="49.45552" lon="3.72972">
        <ele>98.17</ele>
        <time>2022-04-04T13:50:41.999Z</time>
      </trkpt>
      <trkpt lat="49.45557" lon="3.72955">
        <ele>99.8</ele>
        <time>2022-04-04T13:50:51.496Z</time>
      </trkpt>
      <trkpt lat="49.45563" lon="3.72941">
        <ele>100.84</ele>
        <time>2022-04-04T13:51:00.621Z</time>
      </trkpt>
      <trkpt lat="49.45568" lon="3.72926">
        <ele>101.43</ele>
        <time>2022-04-04T13:51:09.999Z</time>
      </trkpt>
      <trkpt lat="49.45567" lon="3.72909">
        <ele>102.01</ele>
        <time>2022-04-04T13:51:19.195Z</time>
      </trkpt>
      <trkpt lat="49.45572" lon="3.72894">
        <ele>102.56</ele>
        <time>2022-04-04T13:51:28.496Z</time>
      </trkpt>
      <trkpt lat="49.4558" lon="3.7288">
        <ele>103.16</ele>
        <time>2022-04-04T13:51:37.780Z</time>
      </trkpt>
      <trkpt lat="49.45586" lon="3.72864">
        <ele>103.39</ele>
        <time>2022-04-04T13:51:47.112Z</time>
      </trkpt>
      <trkpt lat="49.45591" lon="3.72846">
        <ele>104.64</ele>
        <time>2022-04-04T13:51:56.838Z</time>
      </trkpt>
      <trkpt lat="49.45595" lon="3.7283">
        <ele>104.77</ele>
        <time>2022-04-04T13:52:06.139Z</time>
      </trkpt>
      <trkpt lat="49.45598" lon="3.72819">
        <ele>102.73</ele>
        <time>2022-04-04T13:52:15.481Z</time>
      </trkpt>
      <trkpt lat="49.456" lon="3.72811">
        <ele>100.1</ele>
        <time>2022-04-04T13:52:24.999Z</time>
      </trkpt>
      <trkpt lat="49.45607" lon="3.72799">
        <ele>100.53</ele>
        <time>2022-04-04T13:52:34.779Z</time>
      </trkpt>
      <trkpt lat="49.45608" lon="3.72779">
        <ele>102.1</ele>
        <time>2022-04-04T13:52:43.837Z</time>
      </trkpt>
      <trkpt lat="49.45606" lon="3.72755">
        <ele>102.29</ele>
        <time>2022-04-04T13:52:53.020Z</time>
      </trkpt>
      <trkpt lat="49.45608" lon="3.72737">
        <ele>101.27</ele>
        <time>2022-04-04T13:53:02.576Z</time>
      </trkpt>
      <trkpt lat="49.45613" lon="3.72725">
        <ele>99.26</ele>
        <time>2022-04-04T13:53:11.658Z</time>
      </trkpt>
      <trkpt lat="49.45619" lon="3.72717">
        <ele>97.8</ele>
        <time>2022-04-04T13:53:20.993Z</time>
      </trkpt>
      <trkpt lat="49.45624" lon="3.72706">
        <ele>98.01</ele>
        <time>2022-04-04T13:53:29.999Z</time>
      </trkpt>
      <trkpt lat="49.45626" lon="3.72689">
        <ele>99.16</ele>
        <time>2022-04-04T13:53:39.511Z</time>
      </trkpt>
      <trkpt lat="49.4562" lon="3.72662">
        <ele>99.93</ele>
        <time>2022-04-04T13:53:48.599Z</time>
      </trkpt>
      <trkpt lat="49.45624" lon="3.72638">
        <ele>100.61</ele>
        <time>2022-04-04T13:53:57.934Z</time>
      </trkpt>
      <trkpt lat="49.45628" lon="3.72615">
        <ele>100.85</ele>
        <time>2022-04-04T13:54:07.537Z</time>
      </trkpt>
      <trkpt lat="49.45636" lon="3.72598">
        <ele>101.31</ele>
        <time>2022-04-04T13:54:16.581Z</time>
      </trkpt>
      <trkpt lat="49.45647" lon="3.72585">
        <ele>103.25</ele>
        <time>2022-04-04T13:54:25.847Z</time>
      </trkpt>
      <trkpt lat="49.45654" lon="3.72561">
        <ele>106.52</ele>
        <time>2022-04-04T13:54:35.740Z</time>
      </trkpt>
      <trkpt lat="49.45662" lon="3.72545">
        <ele>109.4</ele>
        <time>2022-04-04T13:54:44.817Z</time>
      </trkpt>
      <trkpt lat="49.45675" lon="3.72526">
        <ele>112.32</ele>
        <time>2022-04-04T13:54:53.957Z</time>
      </trkpt>
      <trkpt lat="49.45686" lon="3.7251">
        <ele>114.73</ele>
        <time>2022-04-04T13:55:03.092Z</time>
      </trkpt>
      <trkpt lat="49.45698" lon="3.72503">
        <ele>116.46</ele>
        <time>2022-04-04T13:55:12.818Z</time>
      </trkpt>
      <trkpt lat="49.45708" lon="3.72493">
        <ele>117.75</ele>
        <time>2022-04-04T13:55:21.845Z</time>
      </trkpt>
      <trkpt lat="49.45716" lon="3.72483">
        <ele>118.73</ele>
        <time>2022-04-04T13:55:31.041Z</time>
      </trkpt>
      <trkpt lat="49.45724" lon="3.72473">
        <ele>119.31</ele>
        <time>2022-04-04T13:55:40.253Z</time>
      </trkpt>
      <trkpt lat="49.45732" lon="3.72461">
        <ele>119.15</ele>
        <time>2022-04-04T13:55:49.656Z</time>
      </trkpt>
      <trkpt lat="49.45741" lon="3.72448">
        <ele>117.65</ele>
        <time>2022-04-04T13:55:59.760Z</time>
      </trkpt>
      <trkpt lat="49.45747" lon="3.72434">
        <ele>114.95</ele>
        <time>2022-04-04T13:56:09.716Z</time>
      </trkpt>
      <trkpt lat="49.45751" lon="3.72412">
        <ele>113.16</ele>
        <time>2022-04-04T13:56:18.738Z</time>
      </trkpt>
      <trkpt lat="49.45756" lon="3.72396">
        <ele>111.72</ele>
        <time>2022-04-04T13:56:27.792Z</time>
      </trkpt>
      <trkpt lat="49.45764" lon="3.72383">
        <ele>110.79</ele>
        <time>2022-04-04T13:56:36.999Z</time>
      </trkpt>
      <trkpt lat="49.45762" lon="3.7236">
        <ele>109.58</ele>
        <time>2022-04-04T13:56:46.376Z</time>
      </trkpt>
      <trkpt lat="49.45764" lon="3.7234">
        <ele>108.59</ele>
        <time>2022-04-04T13:56:55.436Z</time>
      </trkpt>
      <trkpt lat="49.45768" lon="3.72321">
        <ele>107.73</ele>
        <time>2022-04-04T13:57:04.820Z</time>
      </trkpt>
      <trkpt lat="49.45773" lon="3.72303">
        <ele>107.26</ele>
        <time>2022-04-04T13:57:14.457Z</time>
      </trkpt>
      <trkpt lat="49.45777" lon="3.72296">
        <ele>107.11</ele>
        <time>2022-04-04T13:57:23.496Z</time>
      </trkpt>
      <trkpt lat="49.45781" lon="3.72296">
        <ele>107.01</ele>
        <time>2022-04-04T13:57:32.531Z</time>
      </trkpt>
      <trkpt lat="49.45789" lon="3.72306">
        <ele>107</ele>
        <time>2022-04-04T13:57:41.739Z</time>
      </trkpt>
      <trkpt lat="49.458" lon="3.72316">
        <ele>107.24</ele>
        <time>2022-04-04T13:57:51.199Z</time>
      </trkpt>
      <trkpt lat="49.45809" lon="3.72329">
        <ele>107.27</ele>
        <time>2022-04-04T13:58:00.600Z</time>
      </trkpt>
      <trkpt lat="49.45823" lon="3.72344">
        <ele>107.48</ele>
        <time>2022-04-04T13:58:10.034Z</time>
      </trkpt>
      <trkpt lat="49.45834" lon="3.72358">
        <ele>108.3</ele>
        <time>2022-04-04T13:58:19.399Z</time>
      </trkpt>
      <trkpt lat="49.45845" lon="3.72372">
        <ele>109.57</ele>
        <time>2022-04-04T13:58:28.798Z</time>
      </trkpt>
      <trkpt lat="49.45855" lon="3.72388">
        <ele>111.13</ele>
        <time>2022-04-04T13:58:38.580Z</time>
      </trkpt>
      <trkpt lat="49.45865" lon="3.72402">
        <ele>112.71</ele>
        <time>2022-04-04T13:58:47.999Z</time>
      </trkpt>
      <trkpt lat="49.45874" lon="3.72415">
        <ele>113.67</ele>
        <time>2022-04-04T13:58:57.317Z</time>
      </trkpt>
      <trkpt lat="49.45887" lon="3.72414">
        <ele>113.88</ele>
        <time>2022-04-04T13:59:06.414Z</time>
      </trkpt>
      <trkpt lat="49.45891" lon="3.72396">
        <ele>112.25</ele>
        <time>2022-04-04T13:59:15.440Z</time>
      </trkpt>
      <trkpt lat="49.45894" lon="3.72379">
        <ele>109.85</ele>
        <time>2022-04-04T13:59:24.503Z</time>
      </trkpt>
      <trkpt lat="49.45901" lon="3.72366">
        <ele>106.65</ele>
        <time>2022-04-04T13:59:33.840Z</time>
      </trkpt>
      <trkpt lat="49.45907" lon="3.72358">
        <ele>101.49</ele>
        <time>2022-04-04T13:59:43.054Z</time>
      </trkpt>
      <trkpt lat="49.45912" lon="3.72348">
        <ele>97.15</ele>
        <time>2022-04-04T13:59:52.239Z</time>
      </trkpt>
      <trkpt lat="49.45913" lon="3.72333">
        <ele>95.1</ele>
        <time>2022-04-04T14:00:01.438Z</time>
      </trkpt>
      <trkpt lat="49.45913" lon="3.72316">
        <ele>92.72</ele>
        <time>2022-04-04T14:00:10.578Z</time>
      </trkpt>
      <trkpt lat="49.45919" lon="3.72303">
        <ele>90.67</ele>
        <time>2022-04-04T14:00:19.592Z</time>
      </trkpt>
      <trkpt lat="49.45919" lon="3.72281">
        <ele>90.27</ele>
        <time>2022-04-04T14:00:28.755Z</time>
      </trkpt>
      <trkpt lat="49.45921" lon="3.72264">
        <ele>88.79</ele>
        <time>2022-04-04T14:00:37.999Z</time>
      </trkpt>
      <trkpt lat="49.45925" lon="3.72249">
        <ele>87.32</ele>
        <time>2022-04-04T14:00:47.537Z</time>
      </trkpt>
      <trkpt lat="49.45929" lon="3.72235">
        <ele>85.86</ele>
        <time>2022-04-04T14:00:56.573Z</time>
      </trkpt>
      <trkpt lat="49.45934" lon="3.72221">
        <ele>85.05</ele>
        <time>2022-04-04T14:01:06.536Z</time>
      </trkpt>
      <trkpt lat="49.45934" lon="3.72202">
        <ele>84.3</ele>
        <time>2022-04-04T14:01:15.652Z</time>
      </trkpt>
      <trkpt lat="49.45939" lon="3.72185">
        <ele>83.46</ele>
        <time>2022-04-04T14:01:24.798Z</time>
      </trkpt>
      <trkpt lat="49.45941" lon="3.72169">
        <ele>82.98</ele>
        <time>2022-04-04T14:01:33.999Z</time>
      </trkpt>
      <trkpt lat="49.45945" lon="3.72152">
        <ele>82.69</ele>
        <time>2022-04-04T14:01:43.017Z</time>
      </trkpt>
      <trkpt lat="49.45944" lon="3.7213">
        <ele>82.5</ele>
        <time>2022-04-04T14:01:52.121Z</time>
      </trkpt>
      <trkpt lat="49.45944" lon="3.72108">
        <ele>82</ele>
        <time>2022-04-04T14:02:01.240Z</time>
      </trkpt>
      <trkpt lat="49.45949" lon="3.72091">
        <ele>81.51</ele>
        <time>2022-04-04T14:02:10.437Z</time>
      </trkpt>
      <trkpt lat="49.45954" lon="3.72074">
        <ele>80.45</ele>
        <time>2022-04-04T14:02:19.560Z</time>
      </trkpt>
      <trkpt lat="49.45959" lon="3.7206">
        <ele>79.03</ele>
        <time>2022-04-04T14:02:28.700Z</time>
      </trkpt>
      <trkpt lat="49.45965" lon="3.72048">
        <ele>78.38</ele>
        <time>2022-04-04T14:02:37.792Z</time>
      </trkpt>
      <trkpt lat="49.45962" lon="3.72023">
        <ele>78.02</ele>
        <time>2022-04-04T14:02:46.999Z</time>
      </trkpt>
      <trkpt lat="49.45967" lon="3.72001">
        <ele>78.04</ele>
        <time>2022-04-04T14:02:56.495Z</time>
      </trkpt>
      <trkpt lat="49.45971" lon="3.71983">
        <ele>78.45</ele>
        <time>2022-04-04T14:03:05.655Z</time>
      </trkpt>
      <trkpt lat="49.45973" lon="3.71965">
        <ele>79.57</ele>
        <time>2022-04-04T14:03:15.032Z</time>
      </trkpt>
      <trkpt lat="49.45971" lon="3.71941">
        <ele>79.95</ele>
        <time>2022-04-04T14:03:24.175Z</time>
      </trkpt>
      <trkpt lat="49.45974" lon="3.71922">
        <ele>79.84</ele>
        <time>2022-04-04T14:03:33.313Z</time>
      </trkpt>
      <trkpt lat="49.45977" lon="3.71901">
        <ele>79.25</ele>
        <time>2022-04-04T14:03:42.757Z</time>
      </trkpt>
      <trkpt lat="49.45986" lon="3.71888">
        <ele>78.77</ele>
        <time>2022-04-04T14:03:51.999Z</time>
      </trkpt>
      <trkpt lat="49.45988" lon="3.71869">
        <ele>78.73</ele>
        <time>2022-04-04T14:04:01.536Z</time>
      </trkpt>
      <trkpt lat="49.45984" lon="3.71844">
        <ele>78.43</ele>
        <time>2022-04-04T14:04:10.957Z</time>
      </trkpt>
      <trkpt lat="49.45989" lon="3.71823">
        <ele>78.37</ele>
        <time>2022-04-04T14:04:20.237Z</time>
      </trkpt>
      <trkpt lat="49.45992" lon="3.71803">
        <ele>78.87</ele>
        <time>2022-04-04T14:04:29.494Z</time>
      </trkpt>
      <trkpt lat="49.45991" lon="3.71777">
        <ele>80.25</ele>
        <time>2022-04-04T14:04:38.756Z</time>
      </trkpt>
      <trkpt lat="49.45994" lon="3.71753">
        <ele>82.21</ele>
        <time>2022-04-04T14:04:47.999Z</time>
      </trkpt>
      <trkpt lat="49.45996" lon="3.7173">
        <ele>84.12</ele>
        <time>2022-04-04T14:04:57.216Z</time>
      </trkpt>
      <trkpt lat="49.45995" lon="3.71707">
        <ele>86.49</ele>
        <time>2022-04-04T14:05:06.740Z</time>
      </trkpt>
      <trkpt lat="49.4599" lon="3.71684">
        <ele>88.73</ele>
        <time>2022-04-04T14:05:15.815Z</time>
      </trkpt>
      <trkpt lat="49.45991" lon="3.71674">
        <ele>89.6</ele>
        <time>2022-04-04T14:05:24.821Z</time>
      </trkpt>
      <trkpt lat="49.4599" lon="3.71665">
        <ele>90.62</ele>
        <time>2022-04-04T14:05:33.999Z</time>
      </trkpt>
      <trkpt lat="49.4599" lon="3.71671">
        <ele>91.99</ele>
        <time>2022-04-04T14:05:43.416Z</time>
      </trkpt>
      <trkpt lat="49.45993" lon="3.71681">
        <ele>94.64</ele>
        <time>2022-04-04T14:05:52.436Z</time>
      </trkpt>
      <trkpt lat="49.46011" lon="3.71679">
        <ele>97.2</ele>
        <time>2022-04-04T14:06:01.796Z</time>
      </trkpt>
      <trkpt lat="49.46026" lon="3.71673">
        <ele>100.03</ele>
        <time>2022-04-04T14:06:11.240Z</time>
      </trkpt>
      <trkpt lat="49.4604" lon="3.71677">
        <ele>102.18</ele>
        <time>2022-04-04T14:06:20.699Z</time>
      </trkpt>
      <trkpt lat="49.46055" lon="3.71684">
        <ele>103.97</ele>
        <time>2022-04-04T14:06:30.040Z</time>
      </trkpt>
      <trkpt lat="49.46064" lon="3.71698">
        <ele>104.81</ele>
        <time>2022-04-04T14:06:39.340Z</time>
      </trkpt>
      <trkpt lat="49.46073" lon="3.71708">
        <ele>105.49</ele>
        <time>2022-04-04T14:06:48.438Z</time>
      </trkpt>
      <trkpt lat="49.46082" lon="3.71715">
        <ele>106.32</ele>
        <time>2022-04-04T14:06:57.698Z</time>
      </trkpt>
      <trkpt lat="49.46091" lon="3.71715">
        <ele>106.79</ele>
        <time>2022-04-04T14:07:06.999Z</time>
      </trkpt>
      <trkpt lat="49.46093" lon="3.71713">
        <ele>106.87</ele>
        <time>2022-04-04T14:07:16.999Z</time>
      </trkpt>
      <trkpt lat="49.46096" lon="3.71714">
        <ele>106.41</ele>
        <time>2022-04-04T14:07:52.999Z</time>
      </trkpt>
      <trkpt lat="49.46098" lon="3.71716">
        <ele>106.11</ele>
        <time>2022-04-04T14:08:02.999Z</time>
      </trkpt>
      <trkpt lat="49.46097" lon="3.71716">
        <ele>107.55</ele>
        <time>2022-04-04T14:10:01.999Z</time>
      </trkpt>
      <trkpt lat="49.46101" lon="3.71717">
        <ele>107.23</ele>
        <time>2022-04-04T14:10:11.504Z</time>
      </trkpt>
      <trkpt lat="49.46113" lon="3.71723">
        <ele>107.16</ele>
        <time>2022-04-04T14:10:21.155Z</time>
      </trkpt>
      <trkpt lat="49.46119" lon="3.71733">
        <ele>106.52</ele>
        <time>2022-04-04T14:10:30.458Z</time>
      </trkpt>
      <trkpt lat="49.46126" lon="3.71732">
        <ele>106.11</ele>
        <time>2022-04-04T14:10:39.637Z</time>
      </trkpt>
      <trkpt lat="49.46148" lon="3.71713">
        <ele>106.27</ele>
        <time>2022-04-04T14:10:49.001Z</time>
      </trkpt>
      <trkpt lat="49.4615" lon="3.71695">
        <ele>105.34</ele>
        <time>2022-04-04T14:10:58.580Z</time>
      </trkpt>
      <trkpt lat="49.46144" lon="3.71683">
        <ele>101.81</ele>
        <time>2022-04-04T14:11:07.712Z</time>
      </trkpt>
      <trkpt lat="49.46143" lon="3.71673">
        <ele>96.9</ele>
        <time>2022-04-04T14:11:16.999Z</time>
      </trkpt>
      <trkpt lat="49.46145" lon="3.7166">
        <ele>92.4</ele>
        <time>2022-04-04T14:11:26.496Z</time>
      </trkpt>
      <trkpt lat="49.46148" lon="3.71648">
        <ele>88.34</ele>
        <time>2022-04-04T14:11:35.692Z</time>
      </trkpt>
      <trkpt lat="49.46152" lon="3.71638">
        <ele>85.33</ele>
        <time>2022-04-04T14:11:44.896Z</time>
      </trkpt>
      <trkpt lat="49.46156" lon="3.71621">
        <ele>85</ele>
        <time>2022-04-04T14:11:54.100Z</time>
      </trkpt>
      <trkpt lat="49.46155" lon="3.71602">
        <ele>83.86</ele>
        <time>2022-04-04T14:12:03.276Z</time>
      </trkpt>
      <trkpt lat="49.46158" lon="3.71589">
        <ele>83.72</ele>
        <time>2022-04-04T14:12:12.498Z</time>
      </trkpt>
      <trkpt lat="49.46169" lon="3.71586">
        <ele>85.76</ele>
        <time>2022-04-04T14:12:21.712Z</time>
      </trkpt>
      <trkpt lat="49.46172" lon="3.71564">
        <ele>88.45</ele>
        <time>2022-04-04T14:12:30.999Z</time>
      </trkpt>
      <trkpt lat="49.46178" lon="3.71542">
        <ele>91.03</ele>
        <time>2022-04-04T14:12:40.119Z</time>
      </trkpt>
      <trkpt lat="49.46185" lon="3.71525">
        <ele>92.89</ele>
        <time>2022-04-04T14:12:49.458Z</time>
      </trkpt>
      <trkpt lat="49.46192" lon="3.71509">
        <ele>94.15</ele>
        <time>2022-04-04T14:12:58.716Z</time>
      </trkpt>
      <trkpt lat="49.46194" lon="3.71487">
        <ele>94.1</ele>
        <time>2022-04-04T14:13:08.472Z</time>
      </trkpt>
      <trkpt lat="49.46194" lon="3.71466">
        <ele>93.68</ele>
        <time>2022-04-04T14:13:17.600Z</time>
      </trkpt>
      <trkpt lat="49.46194" lon="3.71449">
        <ele>92.35</ele>
        <time>2022-04-04T14:13:26.655Z</time>
      </trkpt>
      <trkpt lat="49.46194" lon="3.71434">
        <ele>90.33</ele>
        <time>2022-04-04T14:13:35.658Z</time>
      </trkpt>
      <trkpt lat="49.46197" lon="3.71421">
        <ele>88.74</ele>
        <time>2022-04-04T14:13:44.832Z</time>
      </trkpt>
      <trkpt lat="49.46194" lon="3.71406">
        <ele>87.29</ele>
        <time>2022-04-04T14:13:53.899Z</time>
      </trkpt>
      <trkpt lat="49.46189" lon="3.71387">
        <ele>86.37</ele>
        <time>2022-04-04T14:14:02.999Z</time>
      </trkpt>
      <trkpt lat="49.46187" lon="3.71368">
        <ele>84.43</ele>
        <time>2022-04-04T14:14:12.501Z</time>
      </trkpt>
      <trkpt lat="49.46183" lon="3.71355">
        <ele>82.64</ele>
        <time>2022-04-04T14:14:21.555Z</time>
      </trkpt>
      <trkpt lat="49.46181" lon="3.71338">
        <ele>80.77</ele>
        <time>2022-04-04T14:14:30.698Z</time>
      </trkpt>
      <trkpt lat="49.46175" lon="3.71318">
        <ele>80.55</ele>
        <time>2022-04-04T14:14:39.816Z</time>
      </trkpt>
      <trkpt lat="49.46165" lon="3.71296">
        <ele>82.37</ele>
        <time>2022-04-04T14:14:48.959Z</time>
      </trkpt>
      <trkpt lat="49.46158" lon="3.71277">
        <ele>84.12</ele>
        <time>2022-04-04T14:14:58.219Z</time>
      </trkpt>
      <trkpt lat="49.46156" lon="3.71259">
        <ele>84.85</ele>
        <time>2022-04-04T14:15:07.578Z</time>
      </trkpt>
      <trkpt lat="49.4616" lon="3.71243">
        <ele>85.31</ele>
        <time>2022-04-04T14:15:16.672Z</time>
      </trkpt>
      <trkpt lat="49.46165" lon="3.71228">
        <ele>85.5</ele>
        <time>2022-04-04T14:15:25.778Z</time>
      </trkpt>
      <trkpt lat="49.4617" lon="3.71214">
        <ele>86.8</ele>
        <time>2022-04-04T14:15:34.918Z</time>
      </trkpt>
      <trkpt lat="49.46168" lon="3.71196">
        <ele>89.04</ele>
        <time>2022-04-04T14:15:43.999Z</time>
      </trkpt>
      <trkpt lat="49.4617" lon="3.71175">
        <ele>92.06</ele>
        <time>2022-04-04T14:15:53.156Z</time>
      </trkpt>
      <trkpt lat="49.46173" lon="3.71158">
        <ele>94.35</ele>
        <time>2022-04-04T14:16:02.572Z</time>
      </trkpt>
      <trkpt lat="49.46175" lon="3.71142">
        <ele>95.66</ele>
        <time>2022-04-04T14:16:12.017Z</time>
      </trkpt>
      <trkpt lat="49.46175" lon="3.71123">
        <ele>96</ele>
        <time>2022-04-04T14:16:21.801Z</time>
      </trkpt>
      <trkpt lat="49.46178" lon="3.71105">
        <ele>95.32</ele>
        <time>2022-04-04T14:16:30.814Z</time>
      </trkpt>
      <trkpt lat="49.46181" lon="3.7109">
        <ele>94.67</ele>
        <time>2022-04-04T14:16:39.816Z</time>
      </trkpt>
      <trkpt lat="49.46182" lon="3.71073">
        <ele>94.53</ele>
        <time>2022-04-04T14:16:49.339Z</time>
      </trkpt>
      <trkpt lat="49.46182" lon="3.71056">
        <ele>94.14</ele>
        <time>2022-04-04T14:16:58.440Z</time>
      </trkpt>
      <trkpt lat="49.46183" lon="3.7104">
        <ele>93.52</ele>
        <time>2022-04-04T14:17:07.716Z</time>
      </trkpt>
      <trkpt lat="49.46188" lon="3.71028">
        <ele>91.09</ele>
        <time>2022-04-04T14:17:16.742Z</time>
      </trkpt>
      <trkpt lat="49.4619" lon="3.71014">
        <ele>89.42</ele>
        <time>2022-04-04T14:17:25.821Z</time>
      </trkpt>
      <trkpt lat="49.46193" lon="3.70998">
        <ele>89.53</ele>
        <time>2022-04-04T14:17:34.842Z</time>
      </trkpt>
      <trkpt lat="49.46193" lon="3.70974">
        <ele>90.03</ele>
        <time>2022-04-04T14:17:43.999Z</time>
      </trkpt>
      <trkpt lat="49.46196" lon="3.70951">
        <ele>90.46</ele>
        <time>2022-04-04T14:17:53.140Z</time>
      </trkpt>
      <trkpt lat="49.46204" lon="3.70935">
        <ele>91.74</ele>
        <time>2022-04-04T14:18:02.241Z</time>
      </trkpt>
      <trkpt lat="49.46211" lon="3.70918">
        <ele>93.28</ele>
        <time>2022-04-04T14:18:11.340Z</time>
      </trkpt>
      <trkpt lat="49.46217" lon="3.70901">
        <ele>95.08</ele>
        <time>2022-04-04T14:18:20.377Z</time>
      </trkpt>
      <trkpt lat="49.46218" lon="3.7088">
        <ele>96.12</ele>
        <time>2022-04-04T14:18:29.433Z</time>
      </trkpt>
      <trkpt lat="49.4622" lon="3.70861">
        <ele>95.89</ele>
        <time>2022-04-04T14:18:38.536Z</time>
      </trkpt>
      <trkpt lat="49.46226" lon="3.70847">
        <ele>94.87</ele>
        <time>2022-04-04T14:18:47.660Z</time>
      </trkpt>
      <trkpt lat="49.46228" lon="3.70833">
        <ele>93.79</ele>
        <time>2022-04-04T14:18:56.740Z</time>
      </trkpt>
      <trkpt lat="49.46231" lon="3.70821">
        <ele>92.87</ele>
        <time>2022-04-04T14:19:05.992Z</time>
      </trkpt>
      <trkpt lat="49.46232" lon="3.70804">
        <ele>91.94</ele>
        <time>2022-04-04T14:19:15.720Z</time>
      </trkpt>
      <trkpt lat="49.46232" lon="3.70783">
        <ele>92.39</ele>
        <time>2022-04-04T14:19:25.298Z</time>
      </trkpt>
      <trkpt lat="49.46229" lon="3.70761">
        <ele>92.53</ele>
        <time>2022-04-04T14:19:34.454Z</time>
      </trkpt>
      <trkpt lat="49.4623" lon="3.70741">
        <ele>92.39</ele>
        <time>2022-04-04T14:19:43.657Z</time>
      </trkpt>
      <trkpt lat="49.46234" lon="3.70725">
        <ele>91.84</ele>
        <time>2022-04-04T14:19:52.957Z</time>
      </trkpt>
      <trkpt lat="49.46237" lon="3.70708">
        <ele>91.1</ele>
        <time>2022-04-04T14:20:02.252Z</time>
      </trkpt>
      <trkpt lat="49.46238" lon="3.70691">
        <ele>89.44</ele>
        <time>2022-04-04T14:20:11.538Z</time>
      </trkpt>
      <trkpt lat="49.46237" lon="3.70672">
        <ele>88.14</ele>
        <time>2022-04-04T14:20:20.999Z</time>
      </trkpt>
      <trkpt lat="49.46237" lon="3.70653">
        <ele>87.61</ele>
        <time>2022-04-04T14:20:30.456Z</time>
      </trkpt>
      <trkpt lat="49.46241" lon="3.70636">
        <ele>87.38</ele>
        <time>2022-04-04T14:20:39.660Z</time>
      </trkpt>
      <trkpt lat="49.46241" lon="3.70619">
        <ele>87.5</ele>
        <time>2022-04-04T14:20:48.974Z</time>
      </trkpt>
      <trkpt lat="49.46241" lon="3.70599">
        <ele>86.5</ele>
        <time>2022-04-04T14:20:58.276Z</time>
      </trkpt>
      <trkpt lat="49.46243" lon="3.70584">
        <ele>84.02</ele>
        <time>2022-04-04T14:21:07.542Z</time>
      </trkpt>
      <trkpt lat="49.46246" lon="3.70568">
        <ele>82.19</ele>
        <time>2022-04-04T14:21:16.832Z</time>
      </trkpt>
      <trkpt lat="49.4625" lon="3.70551">
        <ele>82.81</ele>
        <time>2022-04-04T14:21:26.277Z</time>
      </trkpt>
      <trkpt lat="49.46248" lon="3.70529">
        <ele>84.78</ele>
        <time>2022-04-04T14:21:35.656Z</time>
      </trkpt>
      <trkpt lat="49.46242" lon="3.70508">
        <ele>88</ele>
        <time>2022-04-04T14:21:44.841Z</time>
      </trkpt>
      <trkpt lat="49.46239" lon="3.7048">
        <ele>90.44</ele>
        <time>2022-04-04T14:21:54.432Z</time>
      </trkpt>
      <trkpt lat="49.46241" lon="3.70459">
        <ele>92.06</ele>
        <time>2022-04-04T14:22:03.716Z</time>
      </trkpt>
      <trkpt lat="49.46244" lon="3.70442">
        <ele>92.22</ele>
        <time>2022-04-04T14:22:13.098Z</time>
      </trkpt>
      <trkpt lat="49.46245" lon="3.70425">
        <ele>92.06</ele>
        <time>2022-04-04T14:22:22.392Z</time>
      </trkpt>
      <trkpt lat="49.46244" lon="3.70409">
        <ele>91.83</ele>
        <time>2022-04-04T14:22:31.719Z</time>
      </trkpt>
      <trkpt lat="49.46244" lon="3.70393">
        <ele>91.32</ele>
        <time>2022-04-04T14:22:41.152Z</time>
      </trkpt>
      <trkpt lat="49.4624" lon="3.70378">
        <ele>90.1</ele>
        <time>2022-04-04T14:22:50.216Z</time>
      </trkpt>
      <trkpt lat="49.4624" lon="3.70363">
        <ele>87.35</ele>
        <time>2022-04-04T14:22:59.999Z</time>
      </trkpt>
      <trkpt lat="49.4624" lon="3.70347">
        <ele>85.53</ele>
        <time>2022-04-04T14:23:09.393Z</time>
      </trkpt>
      <trkpt lat="49.46244" lon="3.70333">
        <ele>84.6</ele>
        <time>2022-04-04T14:23:18.817Z</time>
      </trkpt>
      <trkpt lat="49.46244" lon="3.70317">
        <ele>84.85</ele>
        <time>2022-04-04T14:23:28.334Z</time>
      </trkpt>
      <trkpt lat="49.46242" lon="3.70298">
        <ele>85.05</ele>
        <time>2022-04-04T14:23:37.656Z</time>
      </trkpt>
      <trkpt lat="49.46243" lon="3.70277">
        <ele>84.67</ele>
        <time>2022-04-04T14:23:46.999Z</time>
      </trkpt>
      <trkpt lat="49.46254" lon="3.70266">
        <ele>83.87</ele>
        <time>2022-04-04T14:23:56.220Z</time>
      </trkpt>
      <trkpt lat="49.46262" lon="3.70258">
        <ele>84.38</ele>
        <time>2022-04-04T14:24:05.516Z</time>
      </trkpt>
      <trkpt lat="49.46267" lon="3.70237">
        <ele>85.31</ele>
        <time>2022-04-04T14:24:14.760Z</time>
      </trkpt>
      <trkpt lat="49.46276" lon="3.70223">
        <ele>86.62</ele>
        <time>2022-04-04T14:24:24.012Z</time>
      </trkpt>
      <trkpt lat="49.46286" lon="3.70212">
        <ele>87.35</ele>
        <time>2022-04-04T14:24:33.300Z</time>
      </trkpt>
      <trkpt lat="49.46296" lon="3.70206">
        <ele>88.09</ele>
        <time>2022-04-04T14:24:42.636Z</time>
      </trkpt>
      <trkpt lat="49.46306" lon="3.70192">
        <ele>88.97</ele>
        <time>2022-04-04T14:24:51.979Z</time>
      </trkpt>
      <trkpt lat="49.46314" lon="3.70174">
        <ele>89.76</ele>
        <time>2022-04-04T14:25:01.234Z</time>
      </trkpt>
      <trkpt lat="49.4632" lon="3.70154">
        <ele>89.92</ele>
        <time>2022-04-04T14:25:10.490Z</time>
      </trkpt>
      <trkpt lat="49.46323" lon="3.70136">
        <ele>89.46</ele>
        <time>2022-04-04T14:25:19.760Z</time>
      </trkpt>
      <trkpt lat="49.4633" lon="3.70124">
        <ele>89.02</ele>
        <time>2022-04-04T14:25:28.953Z</time>
      </trkpt>
      <trkpt lat="49.46338" lon="3.70114">
        <ele>98.88</ele>
        <time>2022-04-04T14:25:38.198Z</time>
      </trkpt>
      <trkpt lat="49.4634" lon="3.70098">
        <ele>98.89</ele>
        <time>2022-04-04T14:25:47.351Z</time>
      </trkpt>
      <trkpt lat="49.46341" lon="3.70075">
        <ele>98.89</ele>
        <time>2022-04-04T14:25:56.596Z</time>
      </trkpt>
      <trkpt lat="49.46343" lon="3.70055">
        <ele>94.3</ele>
        <time>2022-04-04T14:26:05.999Z</time>
      </trkpt>
      <trkpt lat="49.46345" lon="3.70035">
        <ele>94.29</ele>
        <time>2022-04-04T14:26:15.277Z</time>
      </trkpt>
      <trkpt lat="49.46345" lon="3.70015">
        <ele>99.69</ele>
        <time>2022-04-04T14:26:24.519Z</time>
      </trkpt>
      <trkpt lat="49.46347" lon="3.69997">
        <ele>105.39</ele>
        <time>2022-04-04T14:26:33.631Z</time>
      </trkpt>
      <trkpt lat="49.46347" lon="3.6998">
        <ele>88.3</ele>
        <time>2022-04-04T14:26:42.802Z</time>
      </trkpt>
      <trkpt lat="49.46347" lon="3.69962">
        <ele>88.3</ele>
        <time>2022-04-04T14:26:51.992Z</time>
      </trkpt>
      <trkpt lat="49.46347" lon="3.69943">
        <ele>97.1</ele>
        <time>2022-04-04T14:27:01.258Z</time>
      </trkpt>
      <trkpt lat="49.46349" lon="3.69925">
        <ele>96.62</ele>
        <time>2022-04-04T14:27:10.479Z</time>
      </trkpt>
      <trkpt lat="49.46351" lon="3.69906">
        <ele>88.44</ele>
        <time>2022-04-04T14:27:19.721Z</time>
      </trkpt>
      <trkpt lat="49.46352" lon="3.69887">
        <ele>97.36</ele>
        <time>2022-04-04T14:27:29.000Z</time>
      </trkpt>
      <trkpt lat="49.46352" lon="3.69869">
        <ele>88.3</ele>
        <time>2022-04-04T14:27:38.138Z</time>
      </trkpt>
      <trkpt lat="49.46355" lon="3.69852">
        <ele>97.09</ele>
        <time>2022-04-04T14:27:47.452Z</time>
      </trkpt>
      <trkpt lat="49.46353" lon="3.69852">
        <ele>97.1</ele>
        <time>2022-04-04T14:27:56.836Z</time>
      </trkpt>
      <trkpt lat="49.46338" lon="3.69832">
        <ele>97.1</ele>
        <time>2022-04-04T14:28:06.000Z</time>
      </trkpt>
      <trkpt lat="49.46337" lon="3.6983">
        <ele>97.1</ele>
        <time>2022-04-04T14:28:16.000Z</time>
      </trkpt>
      <trkpt lat="49.46338" lon="3.69828">
        <ele>97.1</ele>
        <time>2022-04-04T14:28:26.000Z</time>
      </trkpt>
      <trkpt lat="49.46338" lon="3.69826">
        <ele>97.1</ele>
        <time>2022-04-04T14:28:40.000Z</time>
      </trkpt>
      <trkpt lat="49.46339" lon="3.69827">
        <ele>97.1</ele>
        <time>2022-04-04T14:28:50.000Z</time>
      </trkpt>
      <trkpt lat="49.4634" lon="3.69825">
        <ele>97.1</ele>
        <time>2022-04-04T14:29:21.000Z</time>
      </trkpt>
      <trkpt lat="49.46343" lon="3.69813">
        <ele>85.8</ele>
        <time>2022-04-04T14:29:30.696Z</time>
      </trkpt>
      <trkpt lat="49.46348" lon="3.69794">
        <ele>85.8</ele>
        <time>2022-04-04T14:29:40.639Z</time>
      </trkpt>
      <trkpt lat="49.46355" lon="3.6978">
        <ele>94.4</ele>
        <time>2022-04-04T14:29:50.112Z</time>
      </trkpt>
      <trkpt lat="49.46365" lon="3.69768">
        <ele>86.9</ele>
        <time>2022-04-04T14:29:59.601Z</time>
      </trkpt>
      <trkpt lat="49.46371" lon="3.6976">
        <ele>87.37</ele>
        <time>2022-04-04T14:30:09.000Z</time>
      </trkpt>
      <trkpt lat="49.46378" lon="3.6975">
        <ele>87.2</ele>
        <time>2022-04-04T14:30:18.198Z</time>
      </trkpt>
      <trkpt lat="49.46375" lon="3.69733">
        <ele>87.2</ele>
        <time>2022-04-04T14:30:28.000Z</time>
      </trkpt>
      <trkpt lat="49.46371" lon="3.69724">
        <ele>87.2</ele>
        <time>2022-04-04T14:30:38.000Z</time>
      </trkpt>
      <trkpt lat="49.46371" lon="3.69726">
        <ele>97.09</ele>
        <time>2022-04-04T14:30:51.000Z</time>
      </trkpt>
    </trkseg>
  </trk>
</gpx>